<?xml version="1.0" encoding="UTF-8" standalone="no" ?>
<gpx xmlns="http://www.topografix.com/GPX/1/1" xmlns:xsi="http://www.w3.org/2001/XMLSchema-instance" xsi:schemaLocation="http://www.topografix.com/GPX/1/1 http://www.topografix.com/GPX/1/1/gpx.xsd" version="1.1" creator="VisuGPX - https://www.visugpx.com">
  <metadata>
    <name>VTT - Vaugrenier</name>
    <desc><![CDATA[Balade dominicale avec Junior]]></desc>
  </metadata>
  <trk>
    <name><![CDATA[VTT - Vaugrenier_1]]></name>
    <trkseg>
      <trkpt lat="43.62735" lon="7.11776">
        <ele>41.825</ele>
        <time>2011-12-11T13:59:11Z</time>
      </trkpt>
      <trkpt lat="43.62726" lon="7.11781">
        <ele>40.775</ele>
        <time>2011-12-11T13:59:38Z</time>
      </trkpt>
      <trkpt lat="43.62718" lon="7.11788">
        <ele>40.475</ele>
        <time>2011-12-11T13:59:42Z</time>
      </trkpt>
      <trkpt lat="43.62711" lon="7.11799">
        <ele>40.3</ele>
        <time>2011-12-11T13:59:47Z</time>
      </trkpt>
      <trkpt lat="43.62702" lon="7.11797">
        <ele>40.2</ele>
        <time>2011-12-11T13:59:56Z</time>
      </trkpt>
      <trkpt lat="43.62696" lon="7.11807">
        <ele>40.55</ele>
        <time>2011-12-11T14:00:00Z</time>
      </trkpt>
      <trkpt lat="43.62689" lon="7.11819">
        <ele>40.7</ele>
        <time>2011-12-11T14:00:04Z</time>
      </trkpt>
      <trkpt lat="43.62681" lon="7.1183">
        <ele>40.3</ele>
        <time>2011-12-11T14:00:08Z</time>
      </trkpt>
      <trkpt lat="43.62674" lon="7.11843">
        <ele>39.825</ele>
        <time>2011-12-11T14:00:14Z</time>
      </trkpt>
      <trkpt lat="43.6267" lon="7.11854">
        <ele>39.825</ele>
        <time>2011-12-11T14:00:18Z</time>
      </trkpt>
      <trkpt lat="43.62662" lon="7.11863">
        <ele>40</ele>
        <time>2011-12-11T14:00:22Z</time>
      </trkpt>
      <trkpt lat="43.62655" lon="7.11872">
        <ele>39.925</ele>
        <time>2011-12-11T14:00:25Z</time>
      </trkpt>
      <trkpt lat="43.62648" lon="7.11883">
        <ele>39.575</ele>
        <time>2011-12-11T14:00:29Z</time>
      </trkpt>
      <trkpt lat="43.62641" lon="7.11892">
        <ele>39.125</ele>
        <time>2011-12-11T14:00:32Z</time>
      </trkpt>
      <trkpt lat="43.62634" lon="7.119">
        <ele>38.75</ele>
        <time>2011-12-11T14:00:36Z</time>
      </trkpt>
      <trkpt lat="43.62623" lon="7.11906">
        <ele>38.5</ele>
        <time>2011-12-11T14:00:40Z</time>
      </trkpt>
      <trkpt lat="43.62614" lon="7.11905">
        <ele>38.6</ele>
        <time>2011-12-11T14:00:43Z</time>
      </trkpt>
      <trkpt lat="43.62603" lon="7.11903">
        <ele>39.4</ele>
        <time>2011-12-11T14:00:47Z</time>
      </trkpt>
      <trkpt lat="43.62593" lon="7.11908">
        <ele>39.4</ele>
        <time>2011-12-11T14:00:51Z</time>
      </trkpt>
      <trkpt lat="43.62584" lon="7.11916">
        <ele>39.2</ele>
        <time>2011-12-11T14:00:55Z</time>
      </trkpt>
      <trkpt lat="43.62576" lon="7.11923">
        <ele>38.925</ele>
        <time>2011-12-11T14:00:58Z</time>
      </trkpt>
      <trkpt lat="43.62566" lon="7.11932">
        <ele>38.725</ele>
        <time>2011-12-11T14:01:02Z</time>
      </trkpt>
      <trkpt lat="43.62557" lon="7.11943">
        <ele>38.45</ele>
        <time>2011-12-11T14:01:05Z</time>
      </trkpt>
      <trkpt lat="43.62549" lon="7.11952">
        <ele>37.7</ele>
        <time>2011-12-11T14:01:08Z</time>
      </trkpt>
      <trkpt lat="43.62539" lon="7.1196">
        <ele>36.825</ele>
        <time>2011-12-11T14:01:11Z</time>
      </trkpt>
      <trkpt lat="43.62528" lon="7.11966">
        <ele>35.925</ele>
        <time>2011-12-11T14:01:15Z</time>
      </trkpt>
      <trkpt lat="43.6252" lon="7.11971">
        <ele>35.2</ele>
        <time>2011-12-11T14:01:18Z</time>
      </trkpt>
      <trkpt lat="43.62509" lon="7.11977">
        <ele>34.85</ele>
        <time>2011-12-11T14:01:21Z</time>
      </trkpt>
      <trkpt lat="43.62499" lon="7.11982">
        <ele>34.8</ele>
        <time>2011-12-11T14:01:24Z</time>
      </trkpt>
      <trkpt lat="43.62489" lon="7.1199">
        <ele>34.8</ele>
        <time>2011-12-11T14:01:27Z</time>
      </trkpt>
      <trkpt lat="43.62481" lon="7.12">
        <ele>34.775</ele>
        <time>2011-12-11T14:01:30Z</time>
      </trkpt>
      <trkpt lat="43.62475" lon="7.1201">
        <ele>34.5</ele>
        <time>2011-12-11T14:01:33Z</time>
      </trkpt>
      <trkpt lat="43.62468" lon="7.1202">
        <ele>34.325</ele>
        <time>2011-12-11T14:01:37Z</time>
      </trkpt>
      <trkpt lat="43.62458" lon="7.12027">
        <ele>33.975</ele>
        <time>2011-12-11T14:01:40Z</time>
      </trkpt>
      <trkpt lat="43.62449" lon="7.12033">
        <ele>33.475</ele>
        <time>2011-12-11T14:01:43Z</time>
      </trkpt>
      <trkpt lat="43.62439" lon="7.12038">
        <ele>33.075</ele>
        <time>2011-12-11T14:01:46Z</time>
      </trkpt>
      <trkpt lat="43.6243" lon="7.12042">
        <ele>32.675</ele>
        <time>2011-12-11T14:01:49Z</time>
      </trkpt>
      <trkpt lat="43.6242" lon="7.12045">
        <ele>32.2</ele>
        <time>2011-12-11T14:01:52Z</time>
      </trkpt>
      <trkpt lat="43.62411" lon="7.12047">
        <ele>32.225</ele>
        <time>2011-12-11T14:01:55Z</time>
      </trkpt>
      <trkpt lat="43.624" lon="7.1205">
        <ele>32.3</ele>
        <time>2011-12-11T14:02:00Z</time>
      </trkpt>
      <trkpt lat="43.6239" lon="7.12051">
        <ele>32.475</ele>
        <time>2011-12-11T14:02:03Z</time>
      </trkpt>
      <trkpt lat="43.62381" lon="7.1205">
        <ele>32.825</ele>
        <time>2011-12-11T14:02:06Z</time>
      </trkpt>
      <trkpt lat="43.62371" lon="7.12047">
        <ele>33.55</ele>
        <time>2011-12-11T14:02:09Z</time>
      </trkpt>
      <trkpt lat="43.62361" lon="7.12046">
        <ele>34.2</ele>
        <time>2011-12-11T14:02:12Z</time>
      </trkpt>
      <trkpt lat="43.62349" lon="7.12046">
        <ele>34.175</ele>
        <time>2011-12-11T14:02:15Z</time>
      </trkpt>
      <trkpt lat="43.62337" lon="7.12043">
        <ele>33.9</ele>
        <time>2011-12-11T14:02:19Z</time>
      </trkpt>
      <trkpt lat="43.62327" lon="7.12041">
        <ele>33.6</ele>
        <time>2011-12-11T14:02:22Z</time>
      </trkpt>
      <trkpt lat="43.62315" lon="7.12043">
        <ele>33.45</ele>
        <time>2011-12-11T14:02:26Z</time>
      </trkpt>
      <trkpt lat="43.62305" lon="7.12042">
        <ele>33.625</ele>
        <time>2011-12-11T14:02:29Z</time>
      </trkpt>
      <trkpt lat="43.62295" lon="7.12039">
        <ele>34.025</ele>
        <time>2011-12-11T14:02:32Z</time>
      </trkpt>
      <trkpt lat="43.62285" lon="7.12037">
        <ele>34.175</ele>
        <time>2011-12-11T14:02:35Z</time>
      </trkpt>
      <trkpt lat="43.62275" lon="7.12035">
        <ele>34.175</ele>
        <time>2011-12-11T14:02:38Z</time>
      </trkpt>
      <trkpt lat="43.62265" lon="7.12033">
        <ele>34.3</ele>
        <time>2011-12-11T14:02:41Z</time>
      </trkpt>
      <trkpt lat="43.62254" lon="7.12027">
        <ele>35.225</ele>
        <time>2011-12-11T14:02:46Z</time>
      </trkpt>
      <trkpt lat="43.62245" lon="7.12023">
        <ele>36.225</ele>
        <time>2011-12-11T14:02:49Z</time>
      </trkpt>
      <trkpt lat="43.62234" lon="7.1202">
        <ele>37.4</ele>
        <time>2011-12-11T14:02:53Z</time>
      </trkpt>
      <trkpt lat="43.62223" lon="7.12019">
        <ele>38.075</ele>
        <time>2011-12-11T14:02:56Z</time>
      </trkpt>
      <trkpt lat="43.62213" lon="7.12015">
        <ele>38.3</ele>
        <time>2011-12-11T14:02:59Z</time>
      </trkpt>
      <trkpt lat="43.62204" lon="7.1201">
        <ele>38.3</ele>
        <time>2011-12-11T14:03:03Z</time>
      </trkpt>
      <trkpt lat="43.62195" lon="7.12006">
        <ele>38.125</ele>
        <time>2011-12-11T14:03:06Z</time>
      </trkpt>
      <trkpt lat="43.62186" lon="7.12003">
        <ele>37.6</ele>
        <time>2011-12-11T14:03:09Z</time>
      </trkpt>
      <trkpt lat="43.62176" lon="7.11999">
        <ele>37.075</ele>
        <time>2011-12-11T14:03:12Z</time>
      </trkpt>
      <trkpt lat="43.62166" lon="7.11999">
        <ele>36.775</ele>
        <time>2011-12-11T14:03:15Z</time>
      </trkpt>
      <trkpt lat="43.62158" lon="7.12009">
        <ele>36.225</ele>
        <time>2011-12-11T14:03:20Z</time>
      </trkpt>
      <trkpt lat="43.62151" lon="7.12018">
        <ele>35.875</ele>
        <time>2011-12-11T14:03:25Z</time>
      </trkpt>
      <trkpt lat="43.62142" lon="7.12024">
        <ele>35.05</ele>
        <time>2011-12-11T14:03:29Z</time>
      </trkpt>
      <trkpt lat="43.62132" lon="7.12032">
        <ele>34.575</ele>
        <time>2011-12-11T14:03:33Z</time>
      </trkpt>
      <trkpt lat="43.62122" lon="7.1204">
        <ele>34.025</ele>
        <time>2011-12-11T14:03:36Z</time>
      </trkpt>
      <trkpt lat="43.62114" lon="7.12046">
        <ele>33.5</ele>
        <time>2011-12-11T14:03:39Z</time>
      </trkpt>
      <trkpt lat="43.62105" lon="7.12052">
        <ele>32.825</ele>
        <time>2011-12-11T14:03:43Z</time>
      </trkpt>
      <trkpt lat="43.62099" lon="7.12061">
        <ele>31.925</ele>
        <time>2011-12-11T14:03:46Z</time>
      </trkpt>
      <trkpt lat="43.62091" lon="7.12072">
        <ele>30.725</ele>
        <time>2011-12-11T14:03:49Z</time>
      </trkpt>
      <trkpt lat="43.62084" lon="7.12081">
        <ele>30</ele>
        <time>2011-12-11T14:03:51Z</time>
      </trkpt>
      <trkpt lat="43.62077" lon="7.12089">
        <ele>29.5</ele>
        <time>2011-12-11T14:03:53Z</time>
      </trkpt>
      <trkpt lat="43.62069" lon="7.12102">
        <ele>29.3</ele>
        <time>2011-12-11T14:03:56Z</time>
      </trkpt>
      <trkpt lat="43.62062" lon="7.12116">
        <ele>29.275</ele>
        <time>2011-12-11T14:03:59Z</time>
      </trkpt>
      <trkpt lat="43.62059" lon="7.12131">
        <ele>29.25</ele>
        <time>2011-12-11T14:04:04Z</time>
      </trkpt>
      <trkpt lat="43.62061" lon="7.12147">
        <ele>29.45</ele>
        <time>2011-12-11T14:04:08Z</time>
      </trkpt>
      <trkpt lat="43.62068" lon="7.1216">
        <ele>30</ele>
        <time>2011-12-11T14:04:13Z</time>
      </trkpt>
      <trkpt lat="43.62076" lon="7.12169">
        <ele>30.45</ele>
        <time>2011-12-11T14:04:16Z</time>
      </trkpt>
      <trkpt lat="43.62084" lon="7.12179">
        <ele>30.975</ele>
        <time>2011-12-11T14:04:19Z</time>
      </trkpt>
      <trkpt lat="43.62093" lon="7.12187">
        <ele>31.325</ele>
        <time>2011-12-11T14:04:24Z</time>
      </trkpt>
      <trkpt lat="43.62102" lon="7.12193">
        <ele>31.525</ele>
        <time>2011-12-11T14:04:27Z</time>
      </trkpt>
      <trkpt lat="43.62113" lon="7.12198">
        <ele>31.85</ele>
        <time>2011-12-11T14:04:31Z</time>
      </trkpt>
      <trkpt lat="43.62125" lon="7.12203">
        <ele>32.45</ele>
        <time>2011-12-11T14:04:35Z</time>
      </trkpt>
      <trkpt lat="43.62137" lon="7.12204">
        <ele>33.175</ele>
        <time>2011-12-11T14:04:38Z</time>
      </trkpt>
      <trkpt lat="43.62148" lon="7.12202">
        <ele>34.175</ele>
        <time>2011-12-11T14:04:42Z</time>
      </trkpt>
      <trkpt lat="43.62157" lon="7.12198">
        <ele>35.225</ele>
        <time>2011-12-11T14:04:45Z</time>
      </trkpt>
      <trkpt lat="43.6217" lon="7.12192">
        <ele>36.15</ele>
        <time>2011-12-11T14:04:50Z</time>
      </trkpt>
      <trkpt lat="43.6218" lon="7.12188">
        <ele>36.625</ele>
        <time>2011-12-11T14:04:53Z</time>
      </trkpt>
      <trkpt lat="43.6219" lon="7.12184">
        <ele>37.825</ele>
        <time>2011-12-11T14:04:56Z</time>
      </trkpt>
      <trkpt lat="43.62199" lon="7.12179">
        <ele>39.075</ele>
        <time>2011-12-11T14:04:59Z</time>
      </trkpt>
      <trkpt lat="43.6221" lon="7.12172">
        <ele>40.525</ele>
        <time>2011-12-11T14:05:02Z</time>
      </trkpt>
      <trkpt lat="43.62221" lon="7.12167">
        <ele>41.75</ele>
        <time>2011-12-11T14:05:05Z</time>
      </trkpt>
      <trkpt lat="43.6223" lon="7.12164">
        <ele>42.4</ele>
        <time>2011-12-11T14:05:08Z</time>
      </trkpt>
      <trkpt lat="43.6224" lon="7.12164">
        <ele>42.25</ele>
        <time>2011-12-11T14:05:11Z</time>
      </trkpt>
      <trkpt lat="43.6225" lon="7.12168">
        <ele>41.65</ele>
        <time>2011-12-11T14:05:15Z</time>
      </trkpt>
      <trkpt lat="43.62259" lon="7.12174">
        <ele>41</ele>
        <time>2011-12-11T14:05:18Z</time>
      </trkpt>
      <trkpt lat="43.62268" lon="7.12182">
        <ele>40.05</ele>
        <time>2011-12-11T14:05:21Z</time>
      </trkpt>
      <trkpt lat="43.62276" lon="7.1219">
        <ele>38.85</ele>
        <time>2011-12-11T14:05:24Z</time>
      </trkpt>
      <trkpt lat="43.62283" lon="7.12198">
        <ele>37.925</ele>
        <time>2011-12-11T14:05:26Z</time>
      </trkpt>
      <trkpt lat="43.62293" lon="7.12207">
        <ele>36.875</ele>
        <time>2011-12-11T14:05:29Z</time>
      </trkpt>
      <trkpt lat="43.62302" lon="7.12213">
        <ele>36.225</ele>
        <time>2011-12-11T14:05:33Z</time>
      </trkpt>
      <trkpt lat="43.62311" lon="7.1222">
        <ele>35.525</ele>
        <time>2011-12-11T14:05:36Z</time>
      </trkpt>
      <trkpt lat="43.62321" lon="7.12226">
        <ele>34.875</ele>
        <time>2011-12-11T14:05:39Z</time>
      </trkpt>
      <trkpt lat="43.62331" lon="7.1223">
        <ele>34.25</ele>
        <time>2011-12-11T14:05:42Z</time>
      </trkpt>
      <trkpt lat="43.62343" lon="7.12233">
        <ele>33.575</ele>
        <time>2011-12-11T14:05:45Z</time>
      </trkpt>
      <trkpt lat="43.62354" lon="7.12239">
        <ele>33.125</ele>
        <time>2011-12-11T14:05:48Z</time>
      </trkpt>
      <trkpt lat="43.62365" lon="7.12243">
        <ele>32.7</ele>
        <time>2011-12-11T14:05:51Z</time>
      </trkpt>
      <trkpt lat="43.62374" lon="7.12245">
        <ele>32.175</ele>
        <time>2011-12-11T14:05:55Z</time>
      </trkpt>
      <trkpt lat="43.62383" lon="7.12246">
        <ele>31.975</ele>
        <time>2011-12-11T14:05:58Z</time>
      </trkpt>
      <trkpt lat="43.62394" lon="7.12245">
        <ele>32.375</ele>
        <time>2011-12-11T14:06:01Z</time>
      </trkpt>
      <trkpt lat="43.62406" lon="7.12241">
        <ele>33.2</ele>
        <time>2011-12-11T14:06:04Z</time>
      </trkpt>
      <trkpt lat="43.62417" lon="7.12237">
        <ele>34.575</ele>
        <time>2011-12-11T14:06:07Z</time>
      </trkpt>
      <trkpt lat="43.62428" lon="7.12236">
        <ele>35.95</ele>
        <time>2011-12-11T14:06:10Z</time>
      </trkpt>
      <trkpt lat="43.62438" lon="7.12234">
        <ele>36.85</ele>
        <time>2011-12-11T14:06:13Z</time>
      </trkpt>
      <trkpt lat="43.62448" lon="7.12229">
        <ele>37.45</ele>
        <time>2011-12-11T14:06:17Z</time>
      </trkpt>
      <trkpt lat="43.62458" lon="7.12221">
        <ele>37.6</ele>
        <time>2011-12-11T14:06:20Z</time>
      </trkpt>
      <trkpt lat="43.62468" lon="7.12213">
        <ele>37.3</ele>
        <time>2011-12-11T14:06:23Z</time>
      </trkpt>
      <trkpt lat="43.62478" lon="7.12207">
        <ele>36.95</ele>
        <time>2011-12-11T14:06:26Z</time>
      </trkpt>
      <trkpt lat="43.62487" lon="7.12205">
        <ele>36.7</ele>
        <time>2011-12-11T14:06:28Z</time>
      </trkpt>
      <trkpt lat="43.62498" lon="7.12205">
        <ele>36.325</ele>
        <time>2011-12-11T14:06:31Z</time>
      </trkpt>
      <trkpt lat="43.62509" lon="7.12209">
        <ele>35.725</ele>
        <time>2011-12-11T14:06:35Z</time>
      </trkpt>
      <trkpt lat="43.62519" lon="7.12215">
        <ele>35.525</ele>
        <time>2011-12-11T14:06:38Z</time>
      </trkpt>
      <trkpt lat="43.62528" lon="7.12219">
        <ele>35.45</ele>
        <time>2011-12-11T14:06:41Z</time>
      </trkpt>
      <trkpt lat="43.62537" lon="7.12215">
        <ele>35.5</ele>
        <time>2011-12-11T14:06:44Z</time>
      </trkpt>
      <trkpt lat="43.62546" lon="7.1221">
        <ele>35.5</ele>
        <time>2011-12-11T14:06:47Z</time>
      </trkpt>
      <trkpt lat="43.62557" lon="7.12204">
        <ele>35.175</ele>
        <time>2011-12-11T14:06:50Z</time>
      </trkpt>
      <trkpt lat="43.62566" lon="7.122">
        <ele>34.575</ele>
        <time>2011-12-11T14:06:53Z</time>
      </trkpt>
      <trkpt lat="43.62576" lon="7.12202">
        <ele>34.325</ele>
        <time>2011-12-11T14:06:56Z</time>
      </trkpt>
      <trkpt lat="43.62587" lon="7.12207">
        <ele>34.7</ele>
        <time>2011-12-11T14:07:01Z</time>
      </trkpt>
      <trkpt lat="43.62599" lon="7.12211">
        <ele>35.05</ele>
        <time>2011-12-11T14:07:04Z</time>
      </trkpt>
      <trkpt lat="43.62608" lon="7.12217">
        <ele>35.175</ele>
        <time>2011-12-11T14:07:07Z</time>
      </trkpt>
      <trkpt lat="43.62618" lon="7.12226">
        <ele>34.925</ele>
        <time>2011-12-11T14:07:10Z</time>
      </trkpt>
      <trkpt lat="43.62627" lon="7.12234">
        <ele>34.675</ele>
        <time>2011-12-11T14:07:13Z</time>
      </trkpt>
      <trkpt lat="43.62635" lon="7.1224">
        <ele>34.55</ele>
        <time>2011-12-11T14:07:16Z</time>
      </trkpt>
      <trkpt lat="43.62642" lon="7.1225">
        <ele>34.225</ele>
        <time>2011-12-11T14:07:19Z</time>
      </trkpt>
      <trkpt lat="43.62646" lon="7.12262">
        <ele>33.6</ele>
        <time>2011-12-11T14:07:23Z</time>
      </trkpt>
      <trkpt lat="43.62646" lon="7.12279">
        <ele>32.925</ele>
        <time>2011-12-11T14:07:26Z</time>
      </trkpt>
      <trkpt lat="43.62645" lon="7.12294">
        <ele>32.425</ele>
        <time>2011-12-11T14:07:29Z</time>
      </trkpt>
      <trkpt lat="43.62643" lon="7.12309">
        <ele>31.9</ele>
        <time>2011-12-11T14:07:32Z</time>
      </trkpt>
      <trkpt lat="43.62641" lon="7.12324">
        <ele>31.375</ele>
        <time>2011-12-11T14:07:34Z</time>
      </trkpt>
      <trkpt lat="43.62638" lon="7.1234">
        <ele>30.65</ele>
        <time>2011-12-11T14:07:37Z</time>
      </trkpt>
      <trkpt lat="43.62635" lon="7.12354">
        <ele>30.2</ele>
        <time>2011-12-11T14:07:40Z</time>
      </trkpt>
      <trkpt lat="43.6263" lon="7.12364">
        <ele>29.675</ele>
        <time>2011-12-11T14:07:44Z</time>
      </trkpt>
      <trkpt lat="43.62622" lon="7.12375">
        <ele>28.875</ele>
        <time>2011-12-11T14:07:47Z</time>
      </trkpt>
      <trkpt lat="43.62613" lon="7.12386">
        <ele>28.3</ele>
        <time>2011-12-11T14:07:50Z</time>
      </trkpt>
      <trkpt lat="43.62602" lon="7.12394">
        <ele>27.975</ele>
        <time>2011-12-11T14:07:53Z</time>
      </trkpt>
      <trkpt lat="43.6259" lon="7.12399">
        <ele>27.2</ele>
        <time>2011-12-11T14:07:56Z</time>
      </trkpt>
      <trkpt lat="43.62579" lon="7.12401">
        <ele>26.6</ele>
        <time>2011-12-11T14:07:59Z</time>
      </trkpt>
      <trkpt lat="43.62568" lon="7.12403">
        <ele>26.225</ele>
        <time>2011-12-11T14:08:02Z</time>
      </trkpt>
      <trkpt lat="43.62558" lon="7.12406">
        <ele>25.3</ele>
        <time>2011-12-11T14:08:07Z</time>
      </trkpt>
      <trkpt lat="43.62553" lon="7.12416">
        <ele>24.3</ele>
        <time>2011-12-11T14:08:11Z</time>
      </trkpt>
      <trkpt lat="43.62554" lon="7.12431">
        <ele>23.35</ele>
        <time>2011-12-11T14:08:16Z</time>
      </trkpt>
      <trkpt lat="43.62562" lon="7.1244">
        <ele>22.1</ele>
        <time>2011-12-11T14:08:20Z</time>
      </trkpt>
      <trkpt lat="43.6257" lon="7.12449">
        <ele>20.5</ele>
        <time>2011-12-11T14:08:24Z</time>
      </trkpt>
      <trkpt lat="43.62578" lon="7.12459">
        <ele>19.325</ele>
        <time>2011-12-11T14:08:29Z</time>
      </trkpt>
      <trkpt lat="43.62586" lon="7.12465">
        <ele>18.575</ele>
        <time>2011-12-11T14:08:33Z</time>
      </trkpt>
      <trkpt lat="43.62597" lon="7.12469">
        <ele>18.35</ele>
        <time>2011-12-11T14:08:38Z</time>
      </trkpt>
      <trkpt lat="43.62608" lon="7.12467">
        <ele>19.8</ele>
        <time>2011-12-11T14:08:42Z</time>
      </trkpt>
      <trkpt lat="43.62616" lon="7.12461">
        <ele>19.975</ele>
        <time>2011-12-11T14:08:46Z</time>
      </trkpt>
      <trkpt lat="43.62624" lon="7.12455">
        <ele>19.05</ele>
        <time>2011-12-11T14:08:51Z</time>
      </trkpt>
      <trkpt lat="43.62632" lon="7.1245">
        <ele>17.95</ele>
        <time>2011-12-11T14:08:55Z</time>
      </trkpt>
      <trkpt lat="43.62641" lon="7.12449">
        <ele>15.275</ele>
        <time>2011-12-11T14:09:00Z</time>
      </trkpt>
      <trkpt lat="43.62651" lon="7.12447">
        <ele>13.45</ele>
        <time>2011-12-11T14:09:04Z</time>
      </trkpt>
      <trkpt lat="43.6266" lon="7.12443">
        <ele>13.8</ele>
        <time>2011-12-11T14:09:08Z</time>
      </trkpt>
      <trkpt lat="43.62669" lon="7.12436">
        <ele>14.825</ele>
        <time>2011-12-11T14:09:13Z</time>
      </trkpt>
      <trkpt lat="43.62677" lon="7.1243">
        <ele>15.75</ele>
        <time>2011-12-11T14:09:16Z</time>
      </trkpt>
      <trkpt lat="43.62685" lon="7.12422">
        <ele>16.625</ele>
        <time>2011-12-11T14:09:19Z</time>
      </trkpt>
      <trkpt lat="43.62694" lon="7.12413">
        <ele>17.175</ele>
        <time>2011-12-11T14:09:22Z</time>
      </trkpt>
      <trkpt lat="43.62702" lon="7.12403">
        <ele>17.7</ele>
        <time>2011-12-11T14:09:25Z</time>
      </trkpt>
      <trkpt lat="43.62711" lon="7.12389">
        <ele>18.725</ele>
        <time>2011-12-11T14:09:28Z</time>
      </trkpt>
      <trkpt lat="43.62716" lon="7.12378">
        <ele>19.25</ele>
        <time>2011-12-11T14:09:31Z</time>
      </trkpt>
      <trkpt lat="43.62722" lon="7.12363">
        <ele>18.8</ele>
        <time>2011-12-11T14:09:35Z</time>
      </trkpt>
      <trkpt lat="43.62726" lon="7.12351">
        <ele>18.075</ele>
        <time>2011-12-11T14:09:38Z</time>
      </trkpt>
      <trkpt lat="43.62729" lon="7.12337">
        <ele>17.725</ele>
        <time>2011-12-11T14:09:42Z</time>
      </trkpt>
      <trkpt lat="43.62733" lon="7.12322">
        <ele>17.65</ele>
        <time>2011-12-11T14:09:45Z</time>
      </trkpt>
      <trkpt lat="43.62735" lon="7.1231">
        <ele>17.375</ele>
        <time>2011-12-11T14:09:48Z</time>
      </trkpt>
      <trkpt lat="43.62739" lon="7.12294">
        <ele>16.875</ele>
        <time>2011-12-11T14:09:51Z</time>
      </trkpt>
      <trkpt lat="43.62743" lon="7.1228">
        <ele>16.625</ele>
        <time>2011-12-11T14:09:54Z</time>
      </trkpt>
      <trkpt lat="43.62746" lon="7.12266">
        <ele>16.3</ele>
        <time>2011-12-11T14:09:57Z</time>
      </trkpt>
      <trkpt lat="43.62749" lon="7.12253">
        <ele>15.875</ele>
        <time>2011-12-11T14:10:01Z</time>
      </trkpt>
      <trkpt lat="43.62752" lon="7.1224">
        <ele>15.85</ele>
        <time>2011-12-11T14:10:04Z</time>
      </trkpt>
      <trkpt lat="43.62755" lon="7.12228">
        <ele>16.525</ele>
        <time>2011-12-11T14:10:08Z</time>
      </trkpt>
      <trkpt lat="43.62755" lon="7.12215">
        <ele>17.375</ele>
        <time>2011-12-11T14:10:52Z</time>
      </trkpt>
      <trkpt lat="43.62753" lon="7.12228">
        <ele>16.55</ele>
        <time>2011-12-11T14:11:04Z</time>
      </trkpt>
      <trkpt lat="43.62743" lon="7.12228">
        <ele>16.6</ele>
        <time>2011-12-11T14:11:09Z</time>
      </trkpt>
      <trkpt lat="43.62734" lon="7.12227">
        <ele>17.7</ele>
        <time>2011-12-11T14:11:17Z</time>
      </trkpt>
      <trkpt lat="43.62723" lon="7.12227">
        <ele>17.675</ele>
        <time>2011-12-11T14:11:23Z</time>
      </trkpt>
      <trkpt lat="43.62716" lon="7.12235">
        <ele>20.3</ele>
        <time>2011-12-11T14:11:33Z</time>
      </trkpt>
      <trkpt lat="43.62725" lon="7.12237">
        <ele>25.875</ele>
        <time>2011-12-11T14:12:05Z</time>
      </trkpt>
      <trkpt lat="43.62735" lon="7.12232">
        <ele>25.15</ele>
        <time>2011-12-11T14:12:09Z</time>
      </trkpt>
      <trkpt lat="43.62745" lon="7.12232">
        <ele>23.575</ele>
        <time>2011-12-11T14:12:13Z</time>
      </trkpt>
      <trkpt lat="43.62735" lon="7.1223">
        <ele>16.85</ele>
        <time>2011-12-11T14:12:25Z</time>
      </trkpt>
      <trkpt lat="43.62725" lon="7.12229">
        <ele>15.975</ele>
        <time>2011-12-11T14:12:30Z</time>
      </trkpt>
      <trkpt lat="43.62716" lon="7.12236">
        <ele>17.075</ele>
        <time>2011-12-11T14:12:35Z</time>
      </trkpt>
      <trkpt lat="43.62726" lon="7.12231">
        <ele>18.475</ele>
        <time>2011-12-11T14:13:01Z</time>
      </trkpt>
      <trkpt lat="43.62735" lon="7.12226">
        <ele>16.975</ele>
        <time>2011-12-11T14:13:04Z</time>
      </trkpt>
      <trkpt lat="43.62742" lon="7.12217">
        <ele>16.025</ele>
        <time>2011-12-11T14:13:09Z</time>
      </trkpt>
      <trkpt lat="43.6274" lon="7.12205">
        <ele>16</ele>
        <time>2011-12-11T14:13:18Z</time>
      </trkpt>
      <trkpt lat="43.62749" lon="7.12211">
        <ele>18.05</ele>
        <time>2011-12-11T14:13:36Z</time>
      </trkpt>
      <trkpt lat="43.6275" lon="7.12224">
        <ele>16.075</ele>
        <time>2011-12-11T14:13:42Z</time>
      </trkpt>
      <trkpt lat="43.6274" lon="7.12223">
        <ele>15.85</ele>
        <time>2011-12-11T14:13:47Z</time>
      </trkpt>
      <trkpt lat="43.6273" lon="7.12227">
        <ele>15.5</ele>
        <time>2011-12-11T14:13:52Z</time>
      </trkpt>
      <trkpt lat="43.62722" lon="7.12233">
        <ele>19.55</ele>
        <time>2011-12-11T14:14:10Z</time>
      </trkpt>
      <trkpt lat="43.62731" lon="7.12233">
        <ele>23.375</ele>
        <time>2011-12-11T14:14:49Z</time>
      </trkpt>
      <trkpt lat="43.62741" lon="7.1223">
        <ele>20.75</ele>
        <time>2011-12-11T14:14:54Z</time>
      </trkpt>
      <trkpt lat="43.62733" lon="7.12235">
        <ele>15.55</ele>
        <time>2011-12-11T14:15:06Z</time>
      </trkpt>
      <trkpt lat="43.62723" lon="7.12231">
        <ele>15.25</ele>
        <time>2011-12-11T14:15:12Z</time>
      </trkpt>
      <trkpt lat="43.62714" lon="7.12229">
        <ele>19</ele>
        <time>2011-12-11T14:15:33Z</time>
      </trkpt>
      <trkpt lat="43.62724" lon="7.12225">
        <ele>17.875</ele>
        <time>2011-12-11T14:15:49Z</time>
      </trkpt>
      <trkpt lat="43.62725" lon="7.12212">
        <ele>18.1</ele>
        <time>2011-12-11T14:15:55Z</time>
      </trkpt>
      <trkpt lat="43.62722" lon="7.12197">
        <ele>20.775</ele>
        <time>2011-12-11T14:16:03Z</time>
      </trkpt>
      <trkpt lat="43.62718" lon="7.12187">
        <ele>27.8</ele>
        <time>2011-12-11T14:16:16Z</time>
      </trkpt>
      <trkpt lat="43.62712" lon="7.12176">
        <ele>36.3</ele>
        <time>2011-12-11T14:16:36Z</time>
      </trkpt>
      <trkpt lat="43.62706" lon="7.12166">
        <ele>35.75</ele>
        <time>2011-12-11T14:16:42Z</time>
      </trkpt>
      <trkpt lat="43.627" lon="7.12157">
        <ele>33.2</ele>
        <time>2011-12-11T14:16:58Z</time>
      </trkpt>
      <trkpt lat="43.62709" lon="7.12156">
        <ele>27.25</ele>
        <time>2011-12-11T14:17:43Z</time>
      </trkpt>
      <trkpt lat="43.62718" lon="7.12161">
        <ele>24.2</ele>
        <time>2011-12-11T14:17:50Z</time>
      </trkpt>
      <trkpt lat="43.62724" lon="7.12171">
        <ele>20.325</ele>
        <time>2011-12-11T14:17:56Z</time>
      </trkpt>
      <trkpt lat="43.6273" lon="7.12182">
        <ele>15.925</ele>
        <time>2011-12-11T14:18:03Z</time>
      </trkpt>
      <trkpt lat="43.62737" lon="7.12173">
        <ele>11.45</ele>
        <time>2011-12-11T14:18:11Z</time>
      </trkpt>
      <trkpt lat="43.62741" lon="7.12161">
        <ele>10.475</ele>
        <time>2011-12-11T14:18:15Z</time>
      </trkpt>
      <trkpt lat="43.62747" lon="7.12149">
        <ele>9.4</ele>
        <time>2011-12-11T14:18:19Z</time>
      </trkpt>
      <trkpt lat="43.62754" lon="7.12136">
        <ele>8.375</ele>
        <time>2011-12-11T14:18:23Z</time>
      </trkpt>
      <trkpt lat="43.62761" lon="7.12124">
        <ele>7.925</ele>
        <time>2011-12-11T14:18:27Z</time>
      </trkpt>
      <trkpt lat="43.62769" lon="7.12118">
        <ele>8.225</ele>
        <time>2011-12-11T14:18:31Z</time>
      </trkpt>
      <trkpt lat="43.62777" lon="7.12113">
        <ele>9.225</ele>
        <time>2011-12-11T14:18:34Z</time>
      </trkpt>
      <trkpt lat="43.62787" lon="7.12107">
        <ele>10.1</ele>
        <time>2011-12-11T14:18:37Z</time>
      </trkpt>
      <trkpt lat="43.62795" lon="7.121">
        <ele>10.925</ele>
        <time>2011-12-11T14:18:40Z</time>
      </trkpt>
      <trkpt lat="43.62803" lon="7.12092">
        <ele>11.775</ele>
        <time>2011-12-11T14:18:43Z</time>
      </trkpt>
      <trkpt lat="43.62811" lon="7.1208">
        <ele>12.9</ele>
        <time>2011-12-11T14:18:46Z</time>
      </trkpt>
      <trkpt lat="43.62817" lon="7.12071">
        <ele>13.65</ele>
        <time>2011-12-11T14:18:49Z</time>
      </trkpt>
      <trkpt lat="43.62824" lon="7.12061">
        <ele>13.95</ele>
        <time>2011-12-11T14:18:52Z</time>
      </trkpt>
      <trkpt lat="43.6283" lon="7.12049">
        <ele>14.25</ele>
        <time>2011-12-11T14:18:57Z</time>
      </trkpt>
      <trkpt lat="43.62839" lon="7.12043">
        <ele>14.7</ele>
        <time>2011-12-11T14:19:01Z</time>
      </trkpt>
      <trkpt lat="43.62851" lon="7.12046">
        <ele>14.45</ele>
        <time>2011-12-11T14:19:05Z</time>
      </trkpt>
      <trkpt lat="43.62862" lon="7.12049">
        <ele>13.825</ele>
        <time>2011-12-11T14:19:08Z</time>
      </trkpt>
      <trkpt lat="43.62875" lon="7.12054">
        <ele>13</ele>
        <time>2011-12-11T14:19:11Z</time>
      </trkpt>
      <trkpt lat="43.62884" lon="7.1206">
        <ele>12.325</ele>
        <time>2011-12-11T14:19:14Z</time>
      </trkpt>
      <trkpt lat="43.62894" lon="7.1207">
        <ele>11.65</ele>
        <time>2011-12-11T14:19:18Z</time>
      </trkpt>
      <trkpt lat="43.62902" lon="7.12081">
        <ele>11.425</ele>
        <time>2011-12-11T14:19:22Z</time>
      </trkpt>
      <trkpt lat="43.62907" lon="7.12092">
        <ele>11.125</ele>
        <time>2011-12-11T14:19:25Z</time>
      </trkpt>
      <trkpt lat="43.62913" lon="7.12105">
        <ele>10.525</ele>
        <time>2011-12-11T14:19:28Z</time>
      </trkpt>
      <trkpt lat="43.62917" lon="7.12122">
        <ele>9.9</ele>
        <time>2011-12-11T14:19:31Z</time>
      </trkpt>
      <trkpt lat="43.62918" lon="7.12135">
        <ele>9.525</ele>
        <time>2011-12-11T14:19:33Z</time>
      </trkpt>
      <trkpt lat="43.62919" lon="7.12151">
        <ele>9.3</ele>
        <time>2011-12-11T14:19:36Z</time>
      </trkpt>
      <trkpt lat="43.62919" lon="7.12165">
        <ele>9.375</ele>
        <time>2011-12-11T14:19:39Z</time>
      </trkpt>
      <trkpt lat="43.62919" lon="7.12178">
        <ele>9.65</ele>
        <time>2011-12-11T14:19:43Z</time>
      </trkpt>
      <trkpt lat="43.62916" lon="7.12193">
        <ele>9.8</ele>
        <time>2011-12-11T14:19:47Z</time>
      </trkpt>
      <trkpt lat="43.62911" lon="7.12203">
        <ele>9.4</ele>
        <time>2011-12-11T14:19:51Z</time>
      </trkpt>
      <trkpt lat="43.629" lon="7.12206">
        <ele>8.275</ele>
        <time>2011-12-11T14:19:56Z</time>
      </trkpt>
      <trkpt lat="43.62907" lon="7.12214">
        <ele>6.075</ele>
        <time>2011-12-11T14:20:12Z</time>
      </trkpt>
      <trkpt lat="43.62899" lon="7.12223">
        <ele>6.2</ele>
        <time>2011-12-11T14:20:19Z</time>
      </trkpt>
      <trkpt lat="43.62893" lon="7.12235">
        <ele>6.25</ele>
        <time>2011-12-11T14:20:23Z</time>
      </trkpt>
      <trkpt lat="43.62886" lon="7.12247">
        <ele>6.45</ele>
        <time>2011-12-11T14:20:27Z</time>
      </trkpt>
      <trkpt lat="43.62878" lon="7.12259">
        <ele>6.65</ele>
        <time>2011-12-11T14:20:31Z</time>
      </trkpt>
      <trkpt lat="43.62877" lon="7.12274">
        <ele>7.2</ele>
        <time>2011-12-11T14:20:37Z</time>
      </trkpt>
      <trkpt lat="43.62874" lon="7.12286">
        <ele>7.45</ele>
        <time>2011-12-11T14:20:41Z</time>
      </trkpt>
      <trkpt lat="43.62869" lon="7.12297">
        <ele>6.85</ele>
        <time>2011-12-11T14:20:45Z</time>
      </trkpt>
      <trkpt lat="43.62863" lon="7.12308">
        <ele>6.325</ele>
        <time>2011-12-11T14:20:48Z</time>
      </trkpt>
      <trkpt lat="43.62857" lon="7.12318">
        <ele>5.85</ele>
        <time>2011-12-11T14:20:51Z</time>
      </trkpt>
      <trkpt lat="43.62851" lon="7.12331">
        <ele>5.1</ele>
        <time>2011-12-11T14:20:55Z</time>
      </trkpt>
      <trkpt lat="43.62846" lon="7.12344">
        <ele>5</ele>
        <time>2011-12-11T14:20:59Z</time>
      </trkpt>
      <trkpt lat="43.62838" lon="7.12357">
        <ele>5.25</ele>
        <time>2011-12-11T14:21:03Z</time>
      </trkpt>
      <trkpt lat="43.62833" lon="7.1237">
        <ele>5.55</ele>
        <time>2011-12-11T14:21:08Z</time>
      </trkpt>
      <trkpt lat="43.62827" lon="7.12381">
        <ele>5.25</ele>
        <time>2011-12-11T14:21:12Z</time>
      </trkpt>
      <trkpt lat="43.62821" lon="7.12392">
        <ele>4.85</ele>
        <time>2011-12-11T14:21:16Z</time>
      </trkpt>
      <trkpt lat="43.62816" lon="7.12403">
        <ele>4.7</ele>
        <time>2011-12-11T14:21:19Z</time>
      </trkpt>
      <trkpt lat="43.6281" lon="7.12415">
        <ele>4.275</ele>
        <time>2011-12-11T14:21:22Z</time>
      </trkpt>
      <trkpt lat="43.62803" lon="7.12427">
        <ele>4.025</ele>
        <time>2011-12-11T14:21:26Z</time>
      </trkpt>
      <trkpt lat="43.62797" lon="7.12437">
        <ele>3.925</ele>
        <time>2011-12-11T14:21:29Z</time>
      </trkpt>
      <trkpt lat="43.62791" lon="7.12447">
        <ele>3.975</ele>
        <time>2011-12-11T14:21:32Z</time>
      </trkpt>
      <trkpt lat="43.62786" lon="7.12458">
        <ele>4.175</ele>
        <time>2011-12-11T14:21:36Z</time>
      </trkpt>
      <trkpt lat="43.6278" lon="7.12469">
        <ele>4.4</ele>
        <time>2011-12-11T14:21:39Z</time>
      </trkpt>
      <trkpt lat="43.62774" lon="7.12483">
        <ele>4.625</ele>
        <time>2011-12-11T14:21:43Z</time>
      </trkpt>
      <trkpt lat="43.62769" lon="7.12494">
        <ele>4.95</ele>
        <time>2011-12-11T14:21:46Z</time>
      </trkpt>
      <trkpt lat="43.62764" lon="7.12507">
        <ele>5.45</ele>
        <time>2011-12-11T14:21:49Z</time>
      </trkpt>
      <trkpt lat="43.62758" lon="7.12518">
        <ele>5.1</ele>
        <time>2011-12-11T14:21:53Z</time>
      </trkpt>
      <trkpt lat="43.6275" lon="7.1253">
        <ele>4.575</ele>
        <time>2011-12-11T14:21:58Z</time>
      </trkpt>
      <trkpt lat="43.62741" lon="7.12542">
        <ele>4.4</ele>
        <time>2011-12-11T14:22:02Z</time>
      </trkpt>
      <trkpt lat="43.62733" lon="7.12551">
        <ele>4.2</ele>
        <time>2011-12-11T14:22:05Z</time>
      </trkpt>
      <trkpt lat="43.62724" lon="7.1256">
        <ele>4.125</ele>
        <time>2011-12-11T14:22:08Z</time>
      </trkpt>
      <trkpt lat="43.62717" lon="7.12568">
        <ele>3.8</ele>
        <time>2011-12-11T14:22:12Z</time>
      </trkpt>
      <trkpt lat="43.62709" lon="7.12576">
        <ele>3.4</ele>
        <time>2011-12-11T14:22:15Z</time>
      </trkpt>
      <trkpt lat="43.62701" lon="7.12584">
        <ele>3.175</ele>
        <time>2011-12-11T14:22:18Z</time>
      </trkpt>
      <trkpt lat="43.62692" lon="7.12593">
        <ele>3.65</ele>
        <time>2011-12-11T14:22:21Z</time>
      </trkpt>
      <trkpt lat="43.62685" lon="7.12603">
        <ele>4.45</ele>
        <time>2011-12-11T14:22:24Z</time>
      </trkpt>
      <trkpt lat="43.62678" lon="7.12611">
        <ele>4.6</ele>
        <time>2011-12-11T14:22:28Z</time>
      </trkpt>
      <trkpt lat="43.62669" lon="7.1262">
        <ele>3.725</ele>
        <time>2011-12-11T14:22:31Z</time>
      </trkpt>
      <trkpt lat="43.62661" lon="7.12627">
        <ele>2.15</ele>
        <time>2011-12-11T14:22:34Z</time>
      </trkpt>
      <trkpt lat="43.62653" lon="7.12634">
        <ele>0.25</ele>
        <time>2011-12-11T14:22:37Z</time>
      </trkpt>
      <trkpt lat="43.62643" lon="7.12642">
        <ele>-0.625</ele>
        <time>2011-12-11T14:22:41Z</time>
      </trkpt>
      <trkpt lat="43.62633" lon="7.12642">
        <ele>-0.35</ele>
        <time>2011-12-11T14:22:44Z</time>
      </trkpt>
      <trkpt lat="43.62623" lon="7.12636">
        <ele>-0.65</ele>
        <time>2011-12-11T14:22:47Z</time>
      </trkpt>
      <trkpt lat="43.62613" lon="7.1263">
        <ele>0.15</ele>
        <time>2011-12-11T14:22:51Z</time>
      </trkpt>
      <trkpt lat="43.62601" lon="7.12623">
        <ele>0.175</ele>
        <time>2011-12-11T14:22:55Z</time>
      </trkpt>
      <trkpt lat="43.62592" lon="7.12617">
        <ele>0.375</ele>
        <time>2011-12-11T14:22:58Z</time>
      </trkpt>
      <trkpt lat="43.62581" lon="7.1261">
        <ele>0.4</ele>
        <time>2011-12-11T14:23:01Z</time>
      </trkpt>
      <trkpt lat="43.6257" lon="7.12602">
        <ele>0.275</ele>
        <time>2011-12-11T14:23:04Z</time>
      </trkpt>
      <trkpt lat="43.62561" lon="7.12596">
        <ele>0.325</ele>
        <time>2011-12-11T14:23:07Z</time>
      </trkpt>
      <trkpt lat="43.62553" lon="7.12591">
        <ele>-0.075</ele>
        <time>2011-12-11T14:23:10Z</time>
      </trkpt>
      <trkpt lat="43.62542" lon="7.12587">
        <ele>-1.3</ele>
        <time>2011-12-11T14:23:14Z</time>
      </trkpt>
      <trkpt lat="43.62531" lon="7.12587">
        <ele>-1.6</ele>
        <time>2011-12-11T14:23:19Z</time>
      </trkpt>
      <trkpt lat="43.62526" lon="7.12597">
        <ele>-1.5</ele>
        <time>2011-12-11T14:23:23Z</time>
      </trkpt>
      <trkpt lat="43.62529" lon="7.12609">
        <ele>-1</ele>
        <time>2011-12-11T14:23:26Z</time>
      </trkpt>
      <trkpt lat="43.62533" lon="7.12623">
        <ele>-0.475</ele>
        <time>2011-12-11T14:23:29Z</time>
      </trkpt>
      <trkpt lat="43.62534" lon="7.12637">
        <ele>-0.8</ele>
        <time>2011-12-11T14:23:32Z</time>
      </trkpt>
      <trkpt lat="43.62533" lon="7.12649">
        <ele>0.225</ele>
        <time>2011-12-11T14:23:35Z</time>
      </trkpt>
      <trkpt lat="43.6253" lon="7.12663">
        <ele>0.35</ele>
        <time>2011-12-11T14:23:39Z</time>
      </trkpt>
      <trkpt lat="43.62526" lon="7.12676">
        <ele>0.125</ele>
        <time>2011-12-11T14:23:42Z</time>
      </trkpt>
      <trkpt lat="43.62523" lon="7.12691">
        <ele>0.3</ele>
        <time>2011-12-11T14:23:47Z</time>
      </trkpt>
      <trkpt lat="43.62519" lon="7.12704">
        <ele>1.1</ele>
        <time>2011-12-11T14:23:50Z</time>
      </trkpt>
      <trkpt lat="43.62516" lon="7.12716">
        <ele>2.15</ele>
        <time>2011-12-11T14:23:54Z</time>
      </trkpt>
      <trkpt lat="43.6251" lon="7.12727">
        <ele>4.975</ele>
        <time>2011-12-11T14:24:01Z</time>
      </trkpt>
      <trkpt lat="43.625" lon="7.12726">
        <ele>8.25</ele>
        <time>2011-12-11T14:24:06Z</time>
      </trkpt>
      <trkpt lat="43.62491" lon="7.12728">
        <ele>10.35</ele>
        <time>2011-12-11T14:24:09Z</time>
      </trkpt>
      <trkpt lat="43.62481" lon="7.12731">
        <ele>13.35</ele>
        <time>2011-12-11T14:24:14Z</time>
      </trkpt>
      <trkpt lat="43.62472" lon="7.1273">
        <ele>15.4</ele>
        <time>2011-12-11T14:24:18Z</time>
      </trkpt>
      <trkpt lat="43.62462" lon="7.1273">
        <ele>16.65</ele>
        <time>2011-12-11T14:24:23Z</time>
      </trkpt>
      <trkpt lat="43.62451" lon="7.12732">
        <ele>18.275</ele>
        <time>2011-12-11T14:24:28Z</time>
      </trkpt>
      <trkpt lat="43.62441" lon="7.12735">
        <ele>19.175</ele>
        <time>2011-12-11T14:24:32Z</time>
      </trkpt>
      <trkpt lat="43.62432" lon="7.1274">
        <ele>19.475</ele>
        <time>2011-12-11T14:24:36Z</time>
      </trkpt>
      <trkpt lat="43.62422" lon="7.12741">
        <ele>19.925</ele>
        <time>2011-12-11T14:24:41Z</time>
      </trkpt>
      <trkpt lat="43.62412" lon="7.12739">
        <ele>20.175</ele>
        <time>2011-12-11T14:24:47Z</time>
      </trkpt>
      <trkpt lat="43.62402" lon="7.12735">
        <ele>19.875</ele>
        <time>2011-12-11T14:24:52Z</time>
      </trkpt>
      <trkpt lat="43.62392" lon="7.12731">
        <ele>19.225</ele>
        <time>2011-12-11T14:24:56Z</time>
      </trkpt>
      <trkpt lat="43.62383" lon="7.12729">
        <ele>17.075</ele>
        <time>2011-12-11T14:25:01Z</time>
      </trkpt>
      <trkpt lat="43.62374" lon="7.12726">
        <ele>15.6</ele>
        <time>2011-12-11T14:25:04Z</time>
      </trkpt>
      <trkpt lat="43.62363" lon="7.12722">
        <ele>15.175</ele>
        <time>2011-12-11T14:25:10Z</time>
      </trkpt>
      <trkpt lat="43.62353" lon="7.1272">
        <ele>15.975</ele>
        <time>2011-12-11T14:25:14Z</time>
      </trkpt>
      <trkpt lat="43.62344" lon="7.12724">
        <ele>18.35</ele>
        <time>2011-12-11T14:25:19Z</time>
      </trkpt>
      <trkpt lat="43.62338" lon="7.12737">
        <ele>21.275</ele>
        <time>2011-12-11T14:25:24Z</time>
      </trkpt>
      <trkpt lat="43.62329" lon="7.12743">
        <ele>23.425</ele>
        <time>2011-12-11T14:25:29Z</time>
      </trkpt>
      <trkpt lat="43.62317" lon="7.12743">
        <ele>24.325</ele>
        <time>2011-12-11T14:25:34Z</time>
      </trkpt>
      <trkpt lat="43.62306" lon="7.12742">
        <ele>23.875</ele>
        <time>2011-12-11T14:25:38Z</time>
      </trkpt>
      <trkpt lat="43.62296" lon="7.1274">
        <ele>23.025</ele>
        <time>2011-12-11T14:25:41Z</time>
      </trkpt>
      <trkpt lat="43.62283" lon="7.12739">
        <ele>21.725</ele>
        <time>2011-12-11T14:25:45Z</time>
      </trkpt>
      <trkpt lat="43.62274" lon="7.12746">
        <ele>21.025</ele>
        <time>2011-12-11T14:25:48Z</time>
      </trkpt>
      <trkpt lat="43.62269" lon="7.12756">
        <ele>20.075</ele>
        <time>2011-12-11T14:25:51Z</time>
      </trkpt>
      <trkpt lat="43.62267" lon="7.12772">
        <ele>18.35</ele>
        <time>2011-12-11T14:25:56Z</time>
      </trkpt>
      <trkpt lat="43.62265" lon="7.12786">
        <ele>16.9</ele>
        <time>2011-12-11T14:25:59Z</time>
      </trkpt>
      <trkpt lat="43.62263" lon="7.128">
        <ele>15.45</ele>
        <time>2011-12-11T14:26:02Z</time>
      </trkpt>
      <trkpt lat="43.62262" lon="7.12816">
        <ele>13.225</ele>
        <time>2011-12-11T14:26:07Z</time>
      </trkpt>
      <trkpt lat="43.6226" lon="7.12828">
        <ele>10.9</ele>
        <time>2011-12-11T14:26:13Z</time>
      </trkpt>
      <trkpt lat="43.62258" lon="7.12842">
        <ele>9.275</ele>
        <time>2011-12-11T14:26:19Z</time>
      </trkpt>
      <trkpt lat="43.62268" lon="7.12852">
        <ele>9.325</ele>
        <time>2011-12-11T14:26:25Z</time>
      </trkpt>
      <trkpt lat="43.62278" lon="7.12858">
        <ele>10.55</ele>
        <time>2011-12-11T14:26:29Z</time>
      </trkpt>
      <trkpt lat="43.62289" lon="7.12864">
        <ele>11.575</ele>
        <time>2011-12-11T14:26:33Z</time>
      </trkpt>
      <trkpt lat="43.623" lon="7.12868">
        <ele>11.775</ele>
        <time>2011-12-11T14:26:36Z</time>
      </trkpt>
      <trkpt lat="43.62308" lon="7.12873">
        <ele>11.55</ele>
        <time>2011-12-11T14:26:39Z</time>
      </trkpt>
      <trkpt lat="43.62317" lon="7.12878">
        <ele>11.225</ele>
        <time>2011-12-11T14:26:42Z</time>
      </trkpt>
      <trkpt lat="43.62326" lon="7.12882">
        <ele>10.7</ele>
        <time>2011-12-11T14:26:46Z</time>
      </trkpt>
      <trkpt lat="43.62337" lon="7.1289">
        <ele>9.95</ele>
        <time>2011-12-11T14:26:50Z</time>
      </trkpt>
      <trkpt lat="43.62345" lon="7.12895">
        <ele>9.475</ele>
        <time>2011-12-11T14:26:53Z</time>
      </trkpt>
      <trkpt lat="43.62356" lon="7.12901">
        <ele>8.875</ele>
        <time>2011-12-11T14:26:56Z</time>
      </trkpt>
      <trkpt lat="43.62364" lon="7.12906">
        <ele>8.225</ele>
        <time>2011-12-11T14:26:59Z</time>
      </trkpt>
      <trkpt lat="43.62374" lon="7.12913">
        <ele>6.925</ele>
        <time>2011-12-11T14:27:04Z</time>
      </trkpt>
      <trkpt lat="43.62382" lon="7.1292">
        <ele>5.925</ele>
        <time>2011-12-11T14:27:07Z</time>
      </trkpt>
      <trkpt lat="43.62391" lon="7.12927">
        <ele>5</ele>
        <time>2011-12-11T14:27:11Z</time>
      </trkpt>
      <trkpt lat="43.624" lon="7.12931">
        <ele>4</ele>
        <time>2011-12-11T14:27:17Z</time>
      </trkpt>
      <trkpt lat="43.62403" lon="7.12919">
        <ele>13</ele>
        <time>2011-12-11T14:28:00Z</time>
      </trkpt>
      <trkpt lat="43.62407" lon="7.12932">
        <ele>-0.3</ele>
        <time>2011-12-11T14:28:45Z</time>
      </trkpt>
      <trkpt lat="43.62411" lon="7.12944">
        <ele>-10.775</ele>
        <time>2011-12-11T14:28:54Z</time>
      </trkpt>
      <trkpt lat="43.62404" lon="7.12935">
        <ele>-8.2</ele>
        <time>2011-12-11T14:29:55Z</time>
      </trkpt>
      <trkpt lat="43.62394" lon="7.1293">
        <ele>-5.45</ele>
        <time>2011-12-11T14:30:00Z</time>
      </trkpt>
      <trkpt lat="43.62385" lon="7.12937">
        <ele>-2.275</ele>
        <time>2011-12-11T14:30:05Z</time>
      </trkpt>
      <trkpt lat="43.62377" lon="7.12948">
        <ele>0.25</ele>
        <time>2011-12-11T14:30:09Z</time>
      </trkpt>
      <trkpt lat="43.62371" lon="7.1296">
        <ele>2.5</ele>
        <time>2011-12-11T14:30:14Z</time>
      </trkpt>
      <trkpt lat="43.62367" lon="7.12972">
        <ele>3.9</ele>
        <time>2011-12-11T14:30:17Z</time>
      </trkpt>
      <trkpt lat="43.62363" lon="7.12985">
        <ele>5.375</ele>
        <time>2011-12-11T14:30:20Z</time>
      </trkpt>
      <trkpt lat="43.62359" lon="7.12999">
        <ele>6.75</ele>
        <time>2011-12-11T14:30:23Z</time>
      </trkpt>
      <trkpt lat="43.62354" lon="7.13013">
        <ele>8.075</ele>
        <time>2011-12-11T14:30:26Z</time>
      </trkpt>
      <trkpt lat="43.62351" lon="7.13025">
        <ele>9.325</ele>
        <time>2011-12-11T14:30:28Z</time>
      </trkpt>
      <trkpt lat="43.62345" lon="7.1304">
        <ele>11.35</ele>
        <time>2011-12-11T14:30:32Z</time>
      </trkpt>
      <trkpt lat="43.62336" lon="7.13046">
        <ele>11.875</ele>
        <time>2011-12-11T14:30:36Z</time>
      </trkpt>
      <trkpt lat="43.62327" lon="7.13044">
        <ele>11.325</ele>
        <time>2011-12-11T14:30:39Z</time>
      </trkpt>
      <trkpt lat="43.62316" lon="7.1304">
        <ele>10.625</ele>
        <time>2011-12-11T14:30:42Z</time>
      </trkpt>
      <trkpt lat="43.62304" lon="7.13035">
        <ele>9.925</ele>
        <time>2011-12-11T14:30:45Z</time>
      </trkpt>
      <trkpt lat="43.62293" lon="7.13031">
        <ele>9.575</ele>
        <time>2011-12-11T14:30:48Z</time>
      </trkpt>
      <trkpt lat="43.62282" lon="7.13027">
        <ele>9.375</ele>
        <time>2011-12-11T14:30:51Z</time>
      </trkpt>
      <trkpt lat="43.62272" lon="7.13023">
        <ele>9.175</ele>
        <time>2011-12-11T14:30:54Z</time>
      </trkpt>
      <trkpt lat="43.62261" lon="7.13018">
        <ele>9.175</ele>
        <time>2011-12-11T14:30:58Z</time>
      </trkpt>
      <trkpt lat="43.62251" lon="7.13014">
        <ele>9.225</ele>
        <time>2011-12-11T14:31:01Z</time>
      </trkpt>
      <trkpt lat="43.62239" lon="7.13009">
        <ele>9.2</ele>
        <time>2011-12-11T14:31:04Z</time>
      </trkpt>
      <trkpt lat="43.62229" lon="7.13005">
        <ele>9.275</ele>
        <time>2011-12-11T14:31:07Z</time>
      </trkpt>
      <trkpt lat="43.62219" lon="7.13002">
        <ele>8.85</ele>
        <time>2011-12-11T14:31:10Z</time>
      </trkpt>
      <trkpt lat="43.62206" lon="7.13001">
        <ele>8.125</ele>
        <time>2011-12-11T14:31:13Z</time>
      </trkpt>
      <trkpt lat="43.62195" lon="7.13">
        <ele>7.425</ele>
        <time>2011-12-11T14:31:16Z</time>
      </trkpt>
      <trkpt lat="43.62185" lon="7.12996">
        <ele>6.7</ele>
        <time>2011-12-11T14:31:20Z</time>
      </trkpt>
      <trkpt lat="43.62174" lon="7.12994">
        <ele>6.175</ele>
        <time>2011-12-11T14:31:23Z</time>
      </trkpt>
      <trkpt lat="43.62162" lon="7.12991">
        <ele>5.775</ele>
        <time>2011-12-11T14:31:26Z</time>
      </trkpt>
      <trkpt lat="43.62153" lon="7.12988">
        <ele>5.55</ele>
        <time>2011-12-11T14:31:28Z</time>
      </trkpt>
      <trkpt lat="43.6214" lon="7.12983">
        <ele>5.125</ele>
        <time>2011-12-11T14:31:31Z</time>
      </trkpt>
      <trkpt lat="43.62127" lon="7.12977">
        <ele>4.95</ele>
        <time>2011-12-11T14:31:34Z</time>
      </trkpt>
      <trkpt lat="43.62116" lon="7.12973">
        <ele>5</ele>
        <time>2011-12-11T14:31:37Z</time>
      </trkpt>
      <trkpt lat="43.62105" lon="7.1297">
        <ele>5</ele>
        <time>2011-12-11T14:31:40Z</time>
      </trkpt>
      <trkpt lat="43.62094" lon="7.12966">
        <ele>4.925</ele>
        <time>2011-12-11T14:31:44Z</time>
      </trkpt>
      <trkpt lat="43.62083" lon="7.12963">
        <ele>4.75</ele>
        <time>2011-12-11T14:31:47Z</time>
      </trkpt>
      <trkpt lat="43.62071" lon="7.12959">
        <ele>4.45</ele>
        <time>2011-12-11T14:31:50Z</time>
      </trkpt>
      <trkpt lat="43.62059" lon="7.12955">
        <ele>4.225</ele>
        <time>2011-12-11T14:31:53Z</time>
      </trkpt>
      <trkpt lat="43.6205" lon="7.12951">
        <ele>4.225</ele>
        <time>2011-12-11T14:31:55Z</time>
      </trkpt>
      <trkpt lat="43.62039" lon="7.12948">
        <ele>4.15</ele>
        <time>2011-12-11T14:31:57Z</time>
      </trkpt>
      <trkpt lat="43.62029" lon="7.12945">
        <ele>3.775</ele>
        <time>2011-12-11T14:32:01Z</time>
      </trkpt>
      <trkpt lat="43.62017" lon="7.12941">
        <ele>3.55</ele>
        <time>2011-12-11T14:32:04Z</time>
      </trkpt>
      <trkpt lat="43.62007" lon="7.12937">
        <ele>3.425</ele>
        <time>2011-12-11T14:32:06Z</time>
      </trkpt>
      <trkpt lat="43.61994" lon="7.1293">
        <ele>3.3</ele>
        <time>2011-12-11T14:32:09Z</time>
      </trkpt>
      <trkpt lat="43.61984" lon="7.12922">
        <ele>3.25</ele>
        <time>2011-12-11T14:32:12Z</time>
      </trkpt>
      <trkpt lat="43.61973" lon="7.12914">
        <ele>3.025</ele>
        <time>2011-12-11T14:32:16Z</time>
      </trkpt>
      <trkpt lat="43.61961" lon="7.12906">
        <ele>3.075</ele>
        <time>2011-12-11T14:32:19Z</time>
      </trkpt>
      <trkpt lat="43.61949" lon="7.12899">
        <ele>3.2</ele>
        <time>2011-12-11T14:32:22Z</time>
      </trkpt>
      <trkpt lat="43.6194" lon="7.12895">
        <ele>3.225</ele>
        <time>2011-12-11T14:32:24Z</time>
      </trkpt>
      <trkpt lat="43.61928" lon="7.12891">
        <ele>3.4</ele>
        <time>2011-12-11T14:32:27Z</time>
      </trkpt>
      <trkpt lat="43.61919" lon="7.12888">
        <ele>3.5</ele>
        <time>2011-12-11T14:32:29Z</time>
      </trkpt>
      <trkpt lat="43.6191" lon="7.12885">
        <ele>3.625</ele>
        <time>2011-12-11T14:32:31Z</time>
      </trkpt>
      <trkpt lat="43.61901" lon="7.12881">
        <ele>3.825</ele>
        <time>2011-12-11T14:32:33Z</time>
      </trkpt>
      <trkpt lat="43.61895" lon="7.12872">
        <ele>4.55</ele>
        <time>2011-12-11T14:32:36Z</time>
      </trkpt>
      <trkpt lat="43.61898" lon="7.12857">
        <ele>5.925</ele>
        <time>2011-12-11T14:32:41Z</time>
      </trkpt>
      <trkpt lat="43.61902" lon="7.12844">
        <ele>6.8</ele>
        <time>2011-12-11T14:32:44Z</time>
      </trkpt>
      <trkpt lat="43.61909" lon="7.12836">
        <ele>6.9</ele>
        <time>2011-12-11T14:32:47Z</time>
      </trkpt>
      <trkpt lat="43.61919" lon="7.12831">
        <ele>6.375</ele>
        <time>2011-12-11T14:32:50Z</time>
      </trkpt>
      <trkpt lat="43.61931" lon="7.12824">
        <ele>5.825</ele>
        <time>2011-12-11T14:32:53Z</time>
      </trkpt>
      <trkpt lat="43.61942" lon="7.12818">
        <ele>4.975</ele>
        <time>2011-12-11T14:32:56Z</time>
      </trkpt>
      <trkpt lat="43.61953" lon="7.12815">
        <ele>3.925</ele>
        <time>2011-12-11T14:32:59Z</time>
      </trkpt>
      <trkpt lat="43.61963" lon="7.12814">
        <ele>3.2</ele>
        <time>2011-12-11T14:33:03Z</time>
      </trkpt>
      <trkpt lat="43.61973" lon="7.12813">
        <ele>2.875</ele>
        <time>2011-12-11T14:33:05Z</time>
      </trkpt>
      <trkpt lat="43.61985" lon="7.12816">
        <ele>2.675</ele>
        <time>2011-12-11T14:33:08Z</time>
      </trkpt>
      <trkpt lat="43.61996" lon="7.12819">
        <ele>2.55</ele>
        <time>2011-12-11T14:33:11Z</time>
      </trkpt>
      <trkpt lat="43.62005" lon="7.12823">
        <ele>2.375</ele>
        <time>2011-12-11T14:33:13Z</time>
      </trkpt>
      <trkpt lat="43.62014" lon="7.12826">
        <ele>2.075</ele>
        <time>2011-12-11T14:33:15Z</time>
      </trkpt>
      <trkpt lat="43.62025" lon="7.12831">
        <ele>1.75</ele>
        <time>2011-12-11T14:33:18Z</time>
      </trkpt>
      <trkpt lat="43.62035" lon="7.12838">
        <ele>1.65</ele>
        <time>2011-12-11T14:33:21Z</time>
      </trkpt>
      <trkpt lat="43.62046" lon="7.12845">
        <ele>1.45</ele>
        <time>2011-12-11T14:33:25Z</time>
      </trkpt>
      <trkpt lat="43.62057" lon="7.12848">
        <ele>1.275</ele>
        <time>2011-12-11T14:33:28Z</time>
      </trkpt>
      <trkpt lat="43.62066" lon="7.12844">
        <ele>1.65</ele>
        <time>2011-12-11T14:33:31Z</time>
      </trkpt>
      <trkpt lat="43.62076" lon="7.12843">
        <ele>1.775</ele>
        <time>2011-12-11T14:33:33Z</time>
      </trkpt>
      <trkpt lat="43.62087" lon="7.12843">
        <ele>1.675</ele>
        <time>2011-12-11T14:33:35Z</time>
      </trkpt>
      <trkpt lat="43.62097" lon="7.12844">
        <ele>1.625</ele>
        <time>2011-12-11T14:33:37Z</time>
      </trkpt>
      <trkpt lat="43.62109" lon="7.12844">
        <ele>1.85</ele>
        <time>2011-12-11T14:33:40Z</time>
      </trkpt>
      <trkpt lat="43.6212" lon="7.12844">
        <ele>1.625</ele>
        <time>2011-12-11T14:33:43Z</time>
      </trkpt>
      <trkpt lat="43.62129" lon="7.12845">
        <ele>1.075</ele>
        <time>2011-12-11T14:33:47Z</time>
      </trkpt>
      <trkpt lat="43.62138" lon="7.12848">
        <ele>0.525</ele>
        <time>2011-12-11T14:33:51Z</time>
      </trkpt>
      <trkpt lat="43.62128" lon="7.12844">
        <ele>0.25</ele>
        <time>2011-12-11T14:35:08Z</time>
      </trkpt>
      <trkpt lat="43.62119" lon="7.12844">
        <ele>0.225</ele>
        <time>2011-12-11T14:35:12Z</time>
      </trkpt>
      <trkpt lat="43.62107" lon="7.12848">
        <ele>0.2</ele>
        <time>2011-12-11T14:35:16Z</time>
      </trkpt>
      <trkpt lat="43.62099" lon="7.12859">
        <ele>-0.875</ele>
        <time>2011-12-11T14:35:20Z</time>
      </trkpt>
      <trkpt lat="43.62095" lon="7.12872">
        <ele>0.35</ele>
        <time>2011-12-11T14:35:24Z</time>
      </trkpt>
      <trkpt lat="43.62102" lon="7.12881">
        <ele>0.6</ele>
        <time>2011-12-11T14:35:30Z</time>
      </trkpt>
      <trkpt lat="43.62113" lon="7.12886">
        <ele>0.75</ele>
        <time>2011-12-11T14:35:34Z</time>
      </trkpt>
      <trkpt lat="43.62122" lon="7.1289">
        <ele>0.675</ele>
        <time>2011-12-11T14:35:37Z</time>
      </trkpt>
      <trkpt lat="43.62131" lon="7.12894">
        <ele>0.525</ele>
        <time>2011-12-11T14:35:40Z</time>
      </trkpt>
      <trkpt lat="43.62142" lon="7.12898">
        <ele>0.35</ele>
        <time>2011-12-11T14:35:43Z</time>
      </trkpt>
      <trkpt lat="43.62153" lon="7.12902">
        <ele>0.3</ele>
        <time>2011-12-11T14:35:46Z</time>
      </trkpt>
      <trkpt lat="43.62164" lon="7.12906">
        <ele>0.175</ele>
        <time>2011-12-11T14:35:49Z</time>
      </trkpt>
      <trkpt lat="43.62173" lon="7.1291">
        <ele>0.1</ele>
        <time>2011-12-11T14:35:52Z</time>
      </trkpt>
      <trkpt lat="43.62182" lon="7.12915">
        <ele>0.4</ele>
        <time>2011-12-11T14:35:55Z</time>
      </trkpt>
      <trkpt lat="43.62194" lon="7.1292">
        <ele>1.075</ele>
        <time>2011-12-11T14:36:00Z</time>
      </trkpt>
      <trkpt lat="43.62203" lon="7.12923">
        <ele>1.35</ele>
        <time>2011-12-11T14:36:04Z</time>
      </trkpt>
      <trkpt lat="43.62212" lon="7.12929">
        <ele>1.45</ele>
        <time>2011-12-11T14:36:07Z</time>
      </trkpt>
      <trkpt lat="43.6222" lon="7.12936">
        <ele>1.75</ele>
        <time>2011-12-11T14:36:10Z</time>
      </trkpt>
      <trkpt lat="43.62232" lon="7.12941">
        <ele>2.1</ele>
        <time>2011-12-11T14:36:13Z</time>
      </trkpt>
      <trkpt lat="43.62243" lon="7.12942">
        <ele>2.425</ele>
        <time>2011-12-11T14:36:16Z</time>
      </trkpt>
      <trkpt lat="43.62254" lon="7.12939">
        <ele>3.1</ele>
        <time>2011-12-11T14:36:19Z</time>
      </trkpt>
      <trkpt lat="43.62262" lon="7.12931">
        <ele>3.875</ele>
        <time>2011-12-11T14:36:23Z</time>
      </trkpt>
      <trkpt lat="43.6227" lon="7.12919">
        <ele>4.575</ele>
        <time>2011-12-11T14:36:27Z</time>
      </trkpt>
      <trkpt lat="43.62275" lon="7.12908">
        <ele>5.05</ele>
        <time>2011-12-11T14:36:30Z</time>
      </trkpt>
      <trkpt lat="43.62281" lon="7.12895">
        <ele>5.425</ele>
        <time>2011-12-11T14:36:33Z</time>
      </trkpt>
      <trkpt lat="43.62283" lon="7.12879">
        <ele>6.15</ele>
        <time>2011-12-11T14:36:37Z</time>
      </trkpt>
      <trkpt lat="43.62276" lon="7.12867">
        <ele>7.25</ele>
        <time>2011-12-11T14:36:41Z</time>
      </trkpt>
      <trkpt lat="43.6227" lon="7.12855">
        <ele>8.3</ele>
        <time>2011-12-11T14:36:46Z</time>
      </trkpt>
      <trkpt lat="43.62266" lon="7.12842">
        <ele>9.175</ele>
        <time>2011-12-11T14:36:50Z</time>
      </trkpt>
      <trkpt lat="43.62262" lon="7.12827">
        <ele>10</ele>
        <time>2011-12-11T14:36:55Z</time>
      </trkpt>
      <trkpt lat="43.62263" lon="7.12814">
        <ele>9.5</ele>
        <time>2011-12-11T14:36:59Z</time>
      </trkpt>
      <trkpt lat="43.62264" lon="7.12798">
        <ele>9</ele>
        <time>2011-12-11T14:37:04Z</time>
      </trkpt>
      <trkpt lat="43.62264" lon="7.12784">
        <ele>8.85</ele>
        <time>2011-12-11T14:37:09Z</time>
      </trkpt>
      <trkpt lat="43.62266" lon="7.12771">
        <ele>7.8</ele>
        <time>2011-12-11T14:37:14Z</time>
      </trkpt>
      <trkpt lat="43.62259" lon="7.12759">
        <ele>7.375</ele>
        <time>2011-12-11T14:37:20Z</time>
      </trkpt>
      <trkpt lat="43.62254" lon="7.12748">
        <ele>6.275</ele>
        <time>2011-12-11T14:37:25Z</time>
      </trkpt>
      <trkpt lat="43.62252" lon="7.12735">
        <ele>4.475</ele>
        <time>2011-12-11T14:37:30Z</time>
      </trkpt>
      <trkpt lat="43.62258" lon="7.12722">
        <ele>3.55</ele>
        <time>2011-12-11T14:37:34Z</time>
      </trkpt>
      <trkpt lat="43.62265" lon="7.12709">
        <ele>3.3</ele>
        <time>2011-12-11T14:37:37Z</time>
      </trkpt>
      <trkpt lat="43.62274" lon="7.12697">
        <ele>2.85</ele>
        <time>2011-12-11T14:37:40Z</time>
      </trkpt>
      <trkpt lat="43.62283" lon="7.12687">
        <ele>2.45</ele>
        <time>2011-12-11T14:37:43Z</time>
      </trkpt>
      <trkpt lat="43.62292" lon="7.12681">
        <ele>2.125</ele>
        <time>2011-12-11T14:37:46Z</time>
      </trkpt>
      <trkpt lat="43.62302" lon="7.12679">
        <ele>1.6</ele>
        <time>2011-12-11T14:37:50Z</time>
      </trkpt>
      <trkpt lat="43.62312" lon="7.12678">
        <ele>0.825</ele>
        <time>2011-12-11T14:37:55Z</time>
      </trkpt>
      <trkpt lat="43.62322" lon="7.12679">
        <ele>0.2</ele>
        <time>2011-12-11T14:37:59Z</time>
      </trkpt>
      <trkpt lat="43.62333" lon="7.12681">
        <ele>0.425</ele>
        <time>2011-12-11T14:38:02Z</time>
      </trkpt>
      <trkpt lat="43.62343" lon="7.12683">
        <ele>0.675</ele>
        <time>2011-12-11T14:38:05Z</time>
      </trkpt>
      <trkpt lat="43.62353" lon="7.12686">
        <ele>0.475</ele>
        <time>2011-12-11T14:38:08Z</time>
      </trkpt>
      <trkpt lat="43.62362" lon="7.12689">
        <ele>0.325</ele>
        <time>2011-12-11T14:38:11Z</time>
      </trkpt>
      <trkpt lat="43.62372" lon="7.12693">
        <ele>0.575</ele>
        <time>2011-12-11T14:38:15Z</time>
      </trkpt>
      <trkpt lat="43.62383" lon="7.12696">
        <ele>0.775</ele>
        <time>2011-12-11T14:38:18Z</time>
      </trkpt>
      <trkpt lat="43.62392" lon="7.12703">
        <ele>0.85</ele>
        <time>2011-12-11T14:38:21Z</time>
      </trkpt>
      <trkpt lat="43.62403" lon="7.1271">
        <ele>0.925</ele>
        <time>2011-12-11T14:38:24Z</time>
      </trkpt>
      <trkpt lat="43.62414" lon="7.1271">
        <ele>1.325</ele>
        <time>2011-12-11T14:38:27Z</time>
      </trkpt>
      <trkpt lat="43.62416" lon="7.12697">
        <ele>3.675</ele>
        <time>2011-12-11T14:38:52Z</time>
      </trkpt>
      <trkpt lat="43.62426" lon="7.12695">
        <ele>4.125</ele>
        <time>2011-12-11T14:38:55Z</time>
      </trkpt>
      <trkpt lat="43.62435" lon="7.12695">
        <ele>5.075</ele>
        <time>2011-12-11T14:39:00Z</time>
      </trkpt>
      <trkpt lat="43.62445" lon="7.12694">
        <ele>5.6</ele>
        <time>2011-12-11T14:39:03Z</time>
      </trkpt>
      <trkpt lat="43.62456" lon="7.12696">
        <ele>6.15</ele>
        <time>2011-12-11T14:39:06Z</time>
      </trkpt>
      <trkpt lat="43.62467" lon="7.12698">
        <ele>6.675</ele>
        <time>2011-12-11T14:39:09Z</time>
      </trkpt>
      <trkpt lat="43.62478" lon="7.127">
        <ele>6.65</ele>
        <time>2011-12-11T14:39:13Z</time>
      </trkpt>
      <trkpt lat="43.62488" lon="7.12693">
        <ele>6.275</ele>
        <time>2011-12-11T14:39:18Z</time>
      </trkpt>
      <trkpt lat="43.62492" lon="7.1268">
        <ele>6.125</ele>
        <time>2011-12-11T14:39:21Z</time>
      </trkpt>
      <trkpt lat="43.62496" lon="7.12667">
        <ele>5.875</ele>
        <time>2011-12-11T14:39:24Z</time>
      </trkpt>
      <trkpt lat="43.625" lon="7.12649">
        <ele>5.65</ele>
        <time>2011-12-11T14:39:27Z</time>
      </trkpt>
      <trkpt lat="43.62502" lon="7.12634">
        <ele>5.775</ele>
        <time>2011-12-11T14:39:30Z</time>
      </trkpt>
      <trkpt lat="43.62501" lon="7.1262">
        <ele>6.05</ele>
        <time>2011-12-11T14:39:33Z</time>
      </trkpt>
      <trkpt lat="43.625" lon="7.12606">
        <ele>6.175</ele>
        <time>2011-12-11T14:39:37Z</time>
      </trkpt>
      <trkpt lat="43.62498" lon="7.12592">
        <ele>5.975</ele>
        <time>2011-12-11T14:39:40Z</time>
      </trkpt>
      <trkpt lat="43.62496" lon="7.12579">
        <ele>5.85</ele>
        <time>2011-12-11T14:39:43Z</time>
      </trkpt>
      <trkpt lat="43.62492" lon="7.12566">
        <ele>6.15</ele>
        <time>2011-12-11T14:39:47Z</time>
      </trkpt>
      <trkpt lat="43.62486" lon="7.12551">
        <ele>6.35</ele>
        <time>2011-12-11T14:39:50Z</time>
      </trkpt>
      <trkpt lat="43.62481" lon="7.12541">
        <ele>6.425</ele>
        <time>2011-12-11T14:39:52Z</time>
      </trkpt>
      <trkpt lat="43.62475" lon="7.12527">
        <ele>5.65</ele>
        <time>2011-12-11T14:39:56Z</time>
      </trkpt>
      <trkpt lat="43.62469" lon="7.12514">
        <ele>4.875</ele>
        <time>2011-12-11T14:40:01Z</time>
      </trkpt>
      <trkpt lat="43.6246" lon="7.12506">
        <ele>5</ele>
        <time>2011-12-11T14:40:05Z</time>
      </trkpt>
      <trkpt lat="43.62451" lon="7.12505">
        <ele>5.325</ele>
        <time>2011-12-11T14:40:08Z</time>
      </trkpt>
      <trkpt lat="43.6244" lon="7.12505">
        <ele>5.375</ele>
        <time>2011-12-11T14:40:11Z</time>
      </trkpt>
      <trkpt lat="43.62429" lon="7.12505">
        <ele>6.025</ele>
        <time>2011-12-11T14:40:14Z</time>
      </trkpt>
      <trkpt lat="43.6242" lon="7.1251">
        <ele>6.525</ele>
        <time>2011-12-11T14:40:17Z</time>
      </trkpt>
      <trkpt lat="43.62409" lon="7.12515">
        <ele>7.25</ele>
        <time>2011-12-11T14:40:22Z</time>
      </trkpt>
      <trkpt lat="43.62397" lon="7.12518">
        <ele>8.175</ele>
        <time>2011-12-11T14:40:26Z</time>
      </trkpt>
      <trkpt lat="43.62388" lon="7.12517">
        <ele>8.65</ele>
        <time>2011-12-11T14:40:30Z</time>
      </trkpt>
      <trkpt lat="43.6238" lon="7.12509">
        <ele>9.25</ele>
        <time>2011-12-11T14:40:33Z</time>
      </trkpt>
      <trkpt lat="43.62372" lon="7.125">
        <ele>9.3</ele>
        <time>2011-12-11T14:40:36Z</time>
      </trkpt>
      <trkpt lat="43.62362" lon="7.12493">
        <ele>8.975</ele>
        <time>2011-12-11T14:40:40Z</time>
      </trkpt>
      <trkpt lat="43.62353" lon="7.12491">
        <ele>8.95</ele>
        <time>2011-12-11T14:40:45Z</time>
      </trkpt>
      <trkpt lat="43.62342" lon="7.1249">
        <ele>9</ele>
        <time>2011-12-11T14:40:49Z</time>
      </trkpt>
      <trkpt lat="43.62333" lon="7.1249">
        <ele>9.225</ele>
        <time>2011-12-11T14:40:52Z</time>
      </trkpt>
      <trkpt lat="43.62323" lon="7.1249">
        <ele>8.775</ele>
        <time>2011-12-11T14:40:56Z</time>
      </trkpt>
      <trkpt lat="43.62314" lon="7.12496">
        <ele>8.5</ele>
        <time>2011-12-11T14:41:03Z</time>
      </trkpt>
      <trkpt lat="43.62303" lon="7.12494">
        <ele>7.525</ele>
        <time>2011-12-11T14:41:08Z</time>
      </trkpt>
      <trkpt lat="43.62293" lon="7.12492">
        <ele>7.025</ele>
        <time>2011-12-11T14:41:12Z</time>
      </trkpt>
      <trkpt lat="43.62283" lon="7.12491">
        <ele>7</ele>
        <time>2011-12-11T14:41:15Z</time>
      </trkpt>
      <trkpt lat="43.6227" lon="7.12492">
        <ele>6.2</ele>
        <time>2011-12-11T14:41:19Z</time>
      </trkpt>
      <trkpt lat="43.62259" lon="7.1249">
        <ele>4.725</ele>
        <time>2011-12-11T14:41:23Z</time>
      </trkpt>
      <trkpt lat="43.62249" lon="7.12487">
        <ele>3.5</ele>
        <time>2011-12-11T14:41:28Z</time>
      </trkpt>
      <trkpt lat="43.62238" lon="7.12484">
        <ele>3</ele>
        <time>2011-12-11T14:41:32Z</time>
      </trkpt>
      <trkpt lat="43.62228" lon="7.12479">
        <ele>3.425</ele>
        <time>2011-12-11T14:41:35Z</time>
      </trkpt>
      <trkpt lat="43.62218" lon="7.12473">
        <ele>4.925</ele>
        <time>2011-12-11T14:41:38Z</time>
      </trkpt>
      <trkpt lat="43.62208" lon="7.12466">
        <ele>6.6</ele>
        <time>2011-12-11T14:41:42Z</time>
      </trkpt>
      <trkpt lat="43.62196" lon="7.12464">
        <ele>7.775</ele>
        <time>2011-12-11T14:41:47Z</time>
      </trkpt>
      <trkpt lat="43.62185" lon="7.12463">
        <ele>8.875</ele>
        <time>2011-12-11T14:41:51Z</time>
      </trkpt>
      <trkpt lat="43.62174" lon="7.12462">
        <ele>9.075</ele>
        <time>2011-12-11T14:41:55Z</time>
      </trkpt>
      <trkpt lat="43.62164" lon="7.12459">
        <ele>8.625</ele>
        <time>2011-12-11T14:41:58Z</time>
      </trkpt>
      <trkpt lat="43.62154" lon="7.12455">
        <ele>7.875</ele>
        <time>2011-12-11T14:42:02Z</time>
      </trkpt>
      <trkpt lat="43.62143" lon="7.1245">
        <ele>7.375</ele>
        <time>2011-12-11T14:42:08Z</time>
      </trkpt>
      <trkpt lat="43.62133" lon="7.12448">
        <ele>7.225</ele>
        <time>2011-12-11T14:42:13Z</time>
      </trkpt>
      <trkpt lat="43.62122" lon="7.1245">
        <ele>7.2</ele>
        <time>2011-12-11T14:42:18Z</time>
      </trkpt>
      <trkpt lat="43.62111" lon="7.12446">
        <ele>8.675</ele>
        <time>2011-12-11T14:42:23Z</time>
      </trkpt>
      <trkpt lat="43.62101" lon="7.12443">
        <ele>9.775</ele>
        <time>2011-12-11T14:42:27Z</time>
      </trkpt>
      <trkpt lat="43.62091" lon="7.12441">
        <ele>10.4</ele>
        <time>2011-12-11T14:42:33Z</time>
      </trkpt>
      <trkpt lat="43.62081" lon="7.12434">
        <ele>10.6</ele>
        <time>2011-12-11T14:42:38Z</time>
      </trkpt>
      <trkpt lat="43.62077" lon="7.12421">
        <ele>11.325</ele>
        <time>2011-12-11T14:42:43Z</time>
      </trkpt>
      <trkpt lat="43.62076" lon="7.12406">
        <ele>12.2</ele>
        <time>2011-12-11T14:42:48Z</time>
      </trkpt>
      <trkpt lat="43.62075" lon="7.12391">
        <ele>12.725</ele>
        <time>2011-12-11T14:42:55Z</time>
      </trkpt>
      <trkpt lat="43.62079" lon="7.12378">
        <ele>12.225</ele>
        <time>2011-12-11T14:43:01Z</time>
      </trkpt>
      <trkpt lat="43.62086" lon="7.1237">
        <ele>12.05</ele>
        <time>2011-12-11T14:43:06Z</time>
      </trkpt>
      <trkpt lat="43.62095" lon="7.12363">
        <ele>12.375</ele>
        <time>2011-12-11T14:43:11Z</time>
      </trkpt>
      <trkpt lat="43.62105" lon="7.12355">
        <ele>13.025</ele>
        <time>2011-12-11T14:43:16Z</time>
      </trkpt>
      <trkpt lat="43.62114" lon="7.1235">
        <ele>14.35</ele>
        <time>2011-12-11T14:43:22Z</time>
      </trkpt>
      <trkpt lat="43.62123" lon="7.12344">
        <ele>15</ele>
        <time>2011-12-11T14:43:27Z</time>
      </trkpt>
      <trkpt lat="43.62133" lon="7.12342">
        <ele>16.2</ele>
        <time>2011-12-11T14:43:32Z</time>
      </trkpt>
      <trkpt lat="43.62142" lon="7.12338">
        <ele>19.2</ele>
        <time>2011-12-11T14:43:36Z</time>
      </trkpt>
      <trkpt lat="43.62152" lon="7.12336">
        <ele>22.05</ele>
        <time>2011-12-11T14:43:41Z</time>
      </trkpt>
      <trkpt lat="43.62161" lon="7.12335">
        <ele>23.45</ele>
        <time>2011-12-11T14:43:46Z</time>
      </trkpt>
      <trkpt lat="43.62171" lon="7.12335">
        <ele>25.125</ele>
        <time>2011-12-11T14:43:51Z</time>
      </trkpt>
      <trkpt lat="43.6218" lon="7.12335">
        <ele>26.975</ele>
        <time>2011-12-11T14:43:55Z</time>
      </trkpt>
      <trkpt lat="43.6219" lon="7.12334">
        <ele>27.975</ele>
        <time>2011-12-11T14:43:59Z</time>
      </trkpt>
      <trkpt lat="43.622" lon="7.12332">
        <ele>27.775</ele>
        <time>2011-12-11T14:44:05Z</time>
      </trkpt>
      <trkpt lat="43.62209" lon="7.12327">
        <ele>27.525</ele>
        <time>2011-12-11T14:44:10Z</time>
      </trkpt>
      <trkpt lat="43.62217" lon="7.12319">
        <ele>26.75</ele>
        <time>2011-12-11T14:44:14Z</time>
      </trkpt>
      <trkpt lat="43.62224" lon="7.1231">
        <ele>26.625</ele>
        <time>2011-12-11T14:44:17Z</time>
      </trkpt>
      <trkpt lat="43.62233" lon="7.12301">
        <ele>26.85</ele>
        <time>2011-12-11T14:44:20Z</time>
      </trkpt>
      <trkpt lat="43.6224" lon="7.12293">
        <ele>26.975</ele>
        <time>2011-12-11T14:44:23Z</time>
      </trkpt>
      <trkpt lat="43.62249" lon="7.12283">
        <ele>27.525</ele>
        <time>2011-12-11T14:44:27Z</time>
      </trkpt>
      <trkpt lat="43.62257" lon="7.1229">
        <ele>30.125</ele>
        <time>2011-12-11T14:44:42Z</time>
      </trkpt>
      <trkpt lat="43.62256" lon="7.12304">
        <ele>30.95</ele>
        <time>2011-12-11T14:44:46Z</time>
      </trkpt>
      <trkpt lat="43.62256" lon="7.1232">
        <ele>32.325</ele>
        <time>2011-12-11T14:44:50Z</time>
      </trkpt>
      <trkpt lat="43.62254" lon="7.12334">
        <ele>34.375</ele>
        <time>2011-12-11T14:44:55Z</time>
      </trkpt>
      <trkpt lat="43.62253" lon="7.12347">
        <ele>36.5</ele>
        <time>2011-12-11T14:44:59Z</time>
      </trkpt>
      <trkpt lat="43.62252" lon="7.12362">
        <ele>37.925</ele>
        <time>2011-12-11T14:45:03Z</time>
      </trkpt>
      <trkpt lat="43.62255" lon="7.12377">
        <ele>38.5</ele>
        <time>2011-12-11T14:45:07Z</time>
      </trkpt>
      <trkpt lat="43.62263" lon="7.12386">
        <ele>37.275</ele>
        <time>2011-12-11T14:45:11Z</time>
      </trkpt>
      <trkpt lat="43.62272" lon="7.12395">
        <ele>35.4</ele>
        <time>2011-12-11T14:45:15Z</time>
      </trkpt>
      <trkpt lat="43.62281" lon="7.12398">
        <ele>34.275</ele>
        <time>2011-12-11T14:45:20Z</time>
      </trkpt>
      <trkpt lat="43.62293" lon="7.12394">
        <ele>34</ele>
        <time>2011-12-11T14:45:25Z</time>
      </trkpt>
      <trkpt lat="43.62304" lon="7.12389">
        <ele>34.375</ele>
        <time>2011-12-11T14:45:30Z</time>
      </trkpt>
      <trkpt lat="43.62313" lon="7.12385">
        <ele>34.975</ele>
        <time>2011-12-11T14:45:34Z</time>
      </trkpt>
      <trkpt lat="43.62323" lon="7.12382">
        <ele>35.3</ele>
        <time>2011-12-11T14:45:38Z</time>
      </trkpt>
      <trkpt lat="43.62334" lon="7.12382">
        <ele>35.15</ele>
        <time>2011-12-11T14:45:43Z</time>
      </trkpt>
      <trkpt lat="43.62344" lon="7.12382">
        <ele>35</ele>
        <time>2011-12-11T14:45:46Z</time>
      </trkpt>
      <trkpt lat="43.62353" lon="7.12382">
        <ele>34.85</ele>
        <time>2011-12-11T14:45:49Z</time>
      </trkpt>
      <trkpt lat="43.62367" lon="7.12383">
        <ele>34.05</ele>
        <time>2011-12-11T14:45:53Z</time>
      </trkpt>
      <trkpt lat="43.62379" lon="7.12386">
        <ele>32.5</ele>
        <time>2011-12-11T14:45:56Z</time>
      </trkpt>
      <trkpt lat="43.62391" lon="7.12389">
        <ele>30.95</ele>
        <time>2011-12-11T14:46:01Z</time>
      </trkpt>
      <trkpt lat="43.62402" lon="7.12392">
        <ele>29.95</ele>
        <time>2011-12-11T14:46:04Z</time>
      </trkpt>
      <trkpt lat="43.62411" lon="7.12395">
        <ele>29.15</ele>
        <time>2011-12-11T14:46:07Z</time>
      </trkpt>
      <trkpt lat="43.62423" lon="7.12398">
        <ele>28.05</ele>
        <time>2011-12-11T14:46:11Z</time>
      </trkpt>
      <trkpt lat="43.62432" lon="7.12402">
        <ele>26.075</ele>
        <time>2011-12-11T14:46:16Z</time>
      </trkpt>
      <trkpt lat="43.62442" lon="7.12401">
        <ele>23.8</ele>
        <time>2011-12-11T14:47:05Z</time>
      </trkpt>
      <trkpt lat="43.62449" lon="7.12391">
        <ele>22.175</ele>
        <time>2011-12-11T14:47:10Z</time>
      </trkpt>
      <trkpt lat="43.62452" lon="7.12377">
        <ele>20.275</ele>
        <time>2011-12-11T14:47:15Z</time>
      </trkpt>
      <trkpt lat="43.62451" lon="7.12364">
        <ele>18.275</ele>
        <time>2011-12-11T14:47:21Z</time>
      </trkpt>
      <trkpt lat="43.62444" lon="7.12352">
        <ele>16.875</ele>
        <time>2011-12-11T14:47:26Z</time>
      </trkpt>
      <trkpt lat="43.62457" lon="7.12349">
        <ele>13.175</ele>
        <time>2011-12-11T14:47:34Z</time>
      </trkpt>
      <trkpt lat="43.62466" lon="7.12354">
        <ele>12.325</ele>
        <time>2011-12-11T14:47:37Z</time>
      </trkpt>
      <trkpt lat="43.62475" lon="7.1236">
        <ele>12.4</ele>
        <time>2011-12-11T14:47:42Z</time>
      </trkpt>
      <trkpt lat="43.6248" lon="7.12372">
        <ele>15.225</ele>
        <time>2011-12-11T14:47:50Z</time>
      </trkpt>
      <trkpt lat="43.62478" lon="7.12389">
        <ele>18.5</ele>
        <time>2011-12-11T14:47:54Z</time>
      </trkpt>
      <trkpt lat="43.62475" lon="7.12402">
        <ele>20.85</ele>
        <time>2011-12-11T14:47:56Z</time>
      </trkpt>
      <trkpt lat="43.62471" lon="7.12415">
        <ele>22.975</ele>
        <time>2011-12-11T14:47:58Z</time>
      </trkpt>
      <trkpt lat="43.62466" lon="7.12429">
        <ele>25.125</ele>
        <time>2011-12-11T14:48:02Z</time>
      </trkpt>
      <trkpt lat="43.62462" lon="7.12444">
        <ele>27</ele>
        <time>2011-12-11T14:48:05Z</time>
      </trkpt>
      <trkpt lat="43.62461" lon="7.12459">
        <ele>28.525</ele>
        <time>2011-12-11T14:48:08Z</time>
      </trkpt>
      <trkpt lat="43.62464" lon="7.12473">
        <ele>29.475</ele>
        <time>2011-12-11T14:48:12Z</time>
      </trkpt>
      <trkpt lat="43.62469" lon="7.12485">
        <ele>29.2</ele>
        <time>2011-12-11T14:48:15Z</time>
      </trkpt>
      <trkpt lat="43.62476" lon="7.12495">
        <ele>28.2</ele>
        <time>2011-12-11T14:48:19Z</time>
      </trkpt>
      <trkpt lat="43.62483" lon="7.12506">
        <ele>26.625</ele>
        <time>2011-12-11T14:48:23Z</time>
      </trkpt>
      <trkpt lat="43.62487" lon="7.12519">
        <ele>25.2</ele>
        <time>2011-12-11T14:48:28Z</time>
      </trkpt>
      <trkpt lat="43.6249" lon="7.12532">
        <ele>23.4</ele>
        <time>2011-12-11T14:48:32Z</time>
      </trkpt>
      <trkpt lat="43.6249" lon="7.12548">
        <ele>21.5</ele>
        <time>2011-12-11T14:48:36Z</time>
      </trkpt>
      <trkpt lat="43.62491" lon="7.12561">
        <ele>20.1</ele>
        <time>2011-12-11T14:48:39Z</time>
      </trkpt>
      <trkpt lat="43.62492" lon="7.12573">
        <ele>15.9</ele>
        <time>2011-12-11T14:49:54Z</time>
      </trkpt>
      <trkpt lat="43.62495" lon="7.12589">
        <ele>13.6</ele>
        <time>2011-12-11T14:50:05Z</time>
      </trkpt>
      <trkpt lat="43.62496" lon="7.12606">
        <ele>12.725</ele>
        <time>2011-12-11T14:50:09Z</time>
      </trkpt>
      <trkpt lat="43.62497" lon="7.12621">
        <ele>12.075</ele>
        <time>2011-12-11T14:50:12Z</time>
      </trkpt>
      <trkpt lat="43.62496" lon="7.12638">
        <ele>11.425</ele>
        <time>2011-12-11T14:50:15Z</time>
      </trkpt>
      <trkpt lat="43.62493" lon="7.12651">
        <ele>11.125</ele>
        <time>2011-12-11T14:50:17Z</time>
      </trkpt>
      <trkpt lat="43.62489" lon="7.12664">
        <ele>10.975</ele>
        <time>2011-12-11T14:50:19Z</time>
      </trkpt>
      <trkpt lat="43.62485" lon="7.12681">
        <ele>10.725</ele>
        <time>2011-12-11T14:50:22Z</time>
      </trkpt>
      <trkpt lat="43.62477" lon="7.12691">
        <ele>10.275</ele>
        <time>2011-12-11T14:50:25Z</time>
      </trkpt>
      <trkpt lat="43.62466" lon="7.12693">
        <ele>9.6</ele>
        <time>2011-12-11T14:50:29Z</time>
      </trkpt>
      <trkpt lat="43.62454" lon="7.12691">
        <ele>8.525</ele>
        <time>2011-12-11T14:50:32Z</time>
      </trkpt>
      <trkpt lat="43.62442" lon="7.12689">
        <ele>7.225</ele>
        <time>2011-12-11T14:50:35Z</time>
      </trkpt>
      <trkpt lat="43.62428" lon="7.1269">
        <ele>6.175</ele>
        <time>2011-12-11T14:50:38Z</time>
      </trkpt>
      <trkpt lat="43.62419" lon="7.12691">
        <ele>5.325</ele>
        <time>2011-12-11T14:50:40Z</time>
      </trkpt>
      <trkpt lat="43.6241" lon="7.12692">
        <ele>4.5</ele>
        <time>2011-12-11T14:50:42Z</time>
      </trkpt>
      <trkpt lat="43.624" lon="7.12694">
        <ele>4</ele>
        <time>2011-12-11T14:50:44Z</time>
      </trkpt>
      <trkpt lat="43.62389" lon="7.12693">
        <ele>3.65</ele>
        <time>2011-12-11T14:50:47Z</time>
      </trkpt>
      <trkpt lat="43.62377" lon="7.12689">
        <ele>3.4</ele>
        <time>2011-12-11T14:50:51Z</time>
      </trkpt>
      <trkpt lat="43.62366" lon="7.12684">
        <ele>3.275</ele>
        <time>2011-12-11T14:50:54Z</time>
      </trkpt>
      <trkpt lat="43.62356" lon="7.12681">
        <ele>3.425</ele>
        <time>2011-12-11T14:50:57Z</time>
      </trkpt>
      <trkpt lat="43.62346" lon="7.12677">
        <ele>3.5</ele>
        <time>2011-12-11T14:51:00Z</time>
      </trkpt>
      <trkpt lat="43.62337" lon="7.12675">
        <ele>3.5</ele>
        <time>2011-12-11T14:51:02Z</time>
      </trkpt>
      <trkpt lat="43.62328" lon="7.12672">
        <ele>3.5</ele>
        <time>2011-12-11T14:51:04Z</time>
      </trkpt>
      <trkpt lat="43.62317" lon="7.1267">
        <ele>3.375</ele>
        <time>2011-12-11T14:51:07Z</time>
      </trkpt>
      <trkpt lat="43.62304" lon="7.1267">
        <ele>3.15</ele>
        <time>2011-12-11T14:51:10Z</time>
      </trkpt>
      <trkpt lat="43.62294" lon="7.12672">
        <ele>2.95</ele>
        <time>2011-12-11T14:51:14Z</time>
      </trkpt>
      <trkpt lat="43.62282" lon="7.12679">
        <ele>3.175</ele>
        <time>2011-12-11T14:51:17Z</time>
      </trkpt>
      <trkpt lat="43.62272" lon="7.12689">
        <ele>3.65</ele>
        <time>2011-12-11T14:51:20Z</time>
      </trkpt>
      <trkpt lat="43.62263" lon="7.12698">
        <ele>4.275</ele>
        <time>2011-12-11T14:51:22Z</time>
      </trkpt>
      <trkpt lat="43.62256" lon="7.12707">
        <ele>5.425</ele>
        <time>2011-12-11T14:51:24Z</time>
      </trkpt>
      <trkpt lat="43.62247" lon="7.1272">
        <ele>7.425</ele>
        <time>2011-12-11T14:51:27Z</time>
      </trkpt>
      <trkpt lat="43.6224" lon="7.12734">
        <ele>9.025</ele>
        <time>2011-12-11T14:51:30Z</time>
      </trkpt>
      <trkpt lat="43.62233" lon="7.1275">
        <ele>9.725</ele>
        <time>2011-12-11T14:51:34Z</time>
      </trkpt>
      <trkpt lat="43.6223" lon="7.12761">
        <ele>9.65</ele>
        <time>2011-12-11T14:51:36Z</time>
      </trkpt>
      <trkpt lat="43.62227" lon="7.12773">
        <ele>9.525</ele>
        <time>2011-12-11T14:51:38Z</time>
      </trkpt>
      <trkpt lat="43.62225" lon="7.12792">
        <ele>9.5</ele>
        <time>2011-12-11T14:51:41Z</time>
      </trkpt>
      <trkpt lat="43.62223" lon="7.12808">
        <ele>9.275</ele>
        <time>2011-12-11T14:51:43Z</time>
      </trkpt>
      <trkpt lat="43.62223" lon="7.12823">
        <ele>8.9</ele>
        <time>2011-12-11T14:51:45Z</time>
      </trkpt>
      <trkpt lat="43.62222" lon="7.12839">
        <ele>8.35</ele>
        <time>2011-12-11T14:51:48Z</time>
      </trkpt>
      <trkpt lat="43.6222" lon="7.12855">
        <ele>7.775</ele>
        <time>2011-12-11T14:51:51Z</time>
      </trkpt>
      <trkpt lat="43.62222" lon="7.12868">
        <ele>7.5</ele>
        <time>2011-12-11T14:51:55Z</time>
      </trkpt>
      <trkpt lat="43.62227" lon="7.12879">
        <ele>7.275</ele>
        <time>2011-12-11T14:51:58Z</time>
      </trkpt>
      <trkpt lat="43.62234" lon="7.12889">
        <ele>6.925</ele>
        <time>2011-12-11T14:52:02Z</time>
      </trkpt>
      <trkpt lat="43.62231" lon="7.12905">
        <ele>7.075</ele>
        <time>2011-12-11T14:52:06Z</time>
      </trkpt>
      <trkpt lat="43.62225" lon="7.12915">
        <ele>7.325</ele>
        <time>2011-12-11T14:52:09Z</time>
      </trkpt>
      <trkpt lat="43.62215" lon="7.12921">
        <ele>7.325</ele>
        <time>2011-12-11T14:52:14Z</time>
      </trkpt>
      <trkpt lat="43.62204" lon="7.12919">
        <ele>6.95</ele>
        <time>2011-12-11T14:52:18Z</time>
      </trkpt>
      <trkpt lat="43.62194" lon="7.12916">
        <ele>6.975</ele>
        <time>2011-12-11T14:52:21Z</time>
      </trkpt>
      <trkpt lat="43.62186" lon="7.12912">
        <ele>7.25</ele>
        <time>2011-12-11T14:52:24Z</time>
      </trkpt>
      <trkpt lat="43.62174" lon="7.12908">
        <ele>7.4</ele>
        <time>2011-12-11T14:52:27Z</time>
      </trkpt>
      <trkpt lat="43.62163" lon="7.12905">
        <ele>7.4</ele>
        <time>2011-12-11T14:52:30Z</time>
      </trkpt>
      <trkpt lat="43.62152" lon="7.12901">
        <ele>7.425</ele>
        <time>2011-12-11T14:52:34Z</time>
      </trkpt>
      <trkpt lat="43.62142" lon="7.12897">
        <ele>7.5</ele>
        <time>2011-12-11T14:52:37Z</time>
      </trkpt>
      <trkpt lat="43.62131" lon="7.12893">
        <ele>7.375</ele>
        <time>2011-12-11T14:52:40Z</time>
      </trkpt>
      <trkpt lat="43.62121" lon="7.1289">
        <ele>6.925</ele>
        <time>2011-12-11T14:52:43Z</time>
      </trkpt>
      <trkpt lat="43.62108" lon="7.12884">
        <ele>6.5</ele>
        <time>2011-12-11T14:52:46Z</time>
      </trkpt>
      <trkpt lat="43.62097" lon="7.12878">
        <ele>6.55</ele>
        <time>2011-12-11T14:52:49Z</time>
      </trkpt>
      <trkpt lat="43.62087" lon="7.12872">
        <ele>7.125</ele>
        <time>2011-12-11T14:52:52Z</time>
      </trkpt>
      <trkpt lat="43.62075" lon="7.12865">
        <ele>7.975</ele>
        <time>2011-12-11T14:52:55Z</time>
      </trkpt>
      <trkpt lat="43.62065" lon="7.12858">
        <ele>8.725</ele>
        <time>2011-12-11T14:52:59Z</time>
      </trkpt>
      <trkpt lat="43.62055" lon="7.12849">
        <ele>8.875</ele>
        <time>2011-12-11T14:53:02Z</time>
      </trkpt>
      <trkpt lat="43.62047" lon="7.1284">
        <ele>8.725</ele>
        <time>2011-12-11T14:53:05Z</time>
      </trkpt>
      <trkpt lat="43.62036" lon="7.1283">
        <ele>8.525</ele>
        <time>2011-12-11T14:53:08Z</time>
      </trkpt>
      <trkpt lat="43.62027" lon="7.12824">
        <ele>8.35</ele>
        <time>2011-12-11T14:53:10Z</time>
      </trkpt>
      <trkpt lat="43.62019" lon="7.1282">
        <ele>8.15</ele>
        <time>2011-12-11T14:53:12Z</time>
      </trkpt>
      <trkpt lat="43.62007" lon="7.12816">
        <ele>7.775</ele>
        <time>2011-12-11T14:53:15Z</time>
      </trkpt>
      <trkpt lat="43.61996" lon="7.12812">
        <ele>7.6</ele>
        <time>2011-12-11T14:53:19Z</time>
      </trkpt>
      <trkpt lat="43.61984" lon="7.12808">
        <ele>7.625</ele>
        <time>2011-12-11T14:53:22Z</time>
      </trkpt>
      <trkpt lat="43.61972" lon="7.12805">
        <ele>7.525</ele>
        <time>2011-12-11T14:53:25Z</time>
      </trkpt>
      <trkpt lat="43.61961" lon="7.12801">
        <ele>7.15</ele>
        <time>2011-12-11T14:53:28Z</time>
      </trkpt>
      <trkpt lat="43.61952" lon="7.12797">
        <ele>6.775</ele>
        <time>2011-12-11T14:53:30Z</time>
      </trkpt>
      <trkpt lat="43.61942" lon="7.12792">
        <ele>6.325</ele>
        <time>2011-12-11T14:53:32Z</time>
      </trkpt>
      <trkpt lat="43.61933" lon="7.12789">
        <ele>5.925</ele>
        <time>2011-12-11T14:53:34Z</time>
      </trkpt>
      <trkpt lat="43.61921" lon="7.12786">
        <ele>5.325</ele>
        <time>2011-12-11T14:53:37Z</time>
      </trkpt>
      <trkpt lat="43.61909" lon="7.12783">
        <ele>4.5</ele>
        <time>2011-12-11T14:53:41Z</time>
      </trkpt>
      <trkpt lat="43.61899" lon="7.1278">
        <ele>3.825</ele>
        <time>2011-12-11T14:53:44Z</time>
      </trkpt>
      <trkpt lat="43.61884" lon="7.12777">
        <ele>3.575</ele>
        <time>2011-12-11T14:53:47Z</time>
      </trkpt>
      <trkpt lat="43.61874" lon="7.12774">
        <ele>3.6</ele>
        <time>2011-12-11T14:53:50Z</time>
      </trkpt>
      <trkpt lat="43.61876" lon="7.12762">
        <ele>3.45</ele>
        <time>2011-12-11T14:53:56Z</time>
      </trkpt>
      <trkpt lat="43.61882" lon="7.12746">
        <ele>3.35</ele>
        <time>2011-12-11T14:54:00Z</time>
      </trkpt>
      <trkpt lat="43.61888" lon="7.12733">
        <ele>3.05</ele>
        <time>2011-12-11T14:54:03Z</time>
      </trkpt>
      <trkpt lat="43.61892" lon="7.12722">
        <ele>2.75</ele>
        <time>2011-12-11T14:54:05Z</time>
      </trkpt>
      <trkpt lat="43.61896" lon="7.12711">
        <ele>2.7</ele>
        <time>2011-12-11T14:54:07Z</time>
      </trkpt>
      <trkpt lat="43.61902" lon="7.127">
        <ele>3.1</ele>
        <time>2011-12-11T14:54:10Z</time>
      </trkpt>
      <trkpt lat="43.61908" lon="7.12688">
        <ele>3.6</ele>
        <time>2011-12-11T14:54:13Z</time>
      </trkpt>
      <trkpt lat="43.61914" lon="7.12676">
        <ele>4.125</ele>
        <time>2011-12-11T14:54:17Z</time>
      </trkpt>
      <trkpt lat="43.6192" lon="7.12665">
        <ele>4.525</ele>
        <time>2011-12-11T14:54:20Z</time>
      </trkpt>
      <trkpt lat="43.61925" lon="7.12653">
        <ele>4.65</ele>
        <time>2011-12-11T14:54:23Z</time>
      </trkpt>
      <trkpt lat="43.61931" lon="7.12638">
        <ele>4.625</ele>
        <time>2011-12-11T14:54:26Z</time>
      </trkpt>
      <trkpt lat="43.61936" lon="7.12624">
        <ele>4.85</ele>
        <time>2011-12-11T14:54:29Z</time>
      </trkpt>
      <trkpt lat="43.6194" lon="7.1261">
        <ele>4.975</ele>
        <time>2011-12-11T14:54:32Z</time>
      </trkpt>
      <trkpt lat="43.61945" lon="7.12595">
        <ele>5.075</ele>
        <time>2011-12-11T14:54:35Z</time>
      </trkpt>
      <trkpt lat="43.61949" lon="7.12581">
        <ele>5.05</ele>
        <time>2011-12-11T14:54:38Z</time>
      </trkpt>
      <trkpt lat="43.61953" lon="7.12567">
        <ele>4.925</ele>
        <time>2011-12-11T14:54:42Z</time>
      </trkpt>
      <trkpt lat="43.61957" lon="7.12552">
        <ele>4.575</ele>
        <time>2011-12-11T14:54:45Z</time>
      </trkpt>
      <trkpt lat="43.61961" lon="7.12536">
        <ele>3.85</ele>
        <time>2011-12-11T14:54:48Z</time>
      </trkpt>
      <trkpt lat="43.61963" lon="7.12523">
        <ele>3.3</ele>
        <time>2011-12-11T14:54:50Z</time>
      </trkpt>
      <trkpt lat="43.61966" lon="7.12507">
        <ele>2.75</ele>
        <time>2011-12-11T14:54:52Z</time>
      </trkpt>
      <trkpt lat="43.61969" lon="7.12493">
        <ele>2.225</ele>
        <time>2011-12-11T14:54:54Z</time>
      </trkpt>
      <trkpt lat="43.61971" lon="7.1248">
        <ele>1.875</ele>
        <time>2011-12-11T14:54:56Z</time>
      </trkpt>
      <trkpt lat="43.61974" lon="7.12467">
        <ele>1.65</ele>
        <time>2011-12-11T14:54:58Z</time>
      </trkpt>
      <trkpt lat="43.61976" lon="7.12452">
        <ele>1.525</ele>
        <time>2011-12-11T14:55:00Z</time>
      </trkpt>
      <trkpt lat="43.61979" lon="7.1244">
        <ele>1.525</ele>
        <time>2011-12-11T14:55:03Z</time>
      </trkpt>
      <trkpt lat="43.61981" lon="7.12425">
        <ele>1.975</ele>
        <time>2011-12-11T14:55:06Z</time>
      </trkpt>
      <trkpt lat="43.61984" lon="7.12408">
        <ele>2.7</ele>
        <time>2011-12-11T14:55:09Z</time>
      </trkpt>
      <trkpt lat="43.61987" lon="7.12391">
        <ele>3.45</ele>
        <time>2011-12-11T14:55:12Z</time>
      </trkpt>
      <trkpt lat="43.6199" lon="7.12374">
        <ele>4.525</ele>
        <time>2011-12-11T14:55:15Z</time>
      </trkpt>
      <trkpt lat="43.61993" lon="7.12357">
        <ele>5.6</ele>
        <time>2011-12-11T14:55:18Z</time>
      </trkpt>
      <trkpt lat="43.61996" lon="7.12343">
        <ele>6.825</ele>
        <time>2011-12-11T14:55:22Z</time>
      </trkpt>
      <trkpt lat="43.61997" lon="7.1233">
        <ele>8.65</ele>
        <time>2011-12-11T14:55:27Z</time>
      </trkpt>
      <trkpt lat="43.62" lon="7.12317">
        <ele>11.1</ele>
        <time>2011-12-11T14:55:32Z</time>
      </trkpt>
      <trkpt lat="43.62002" lon="7.12302">
        <ele>14.425</ele>
        <time>2011-12-11T14:55:37Z</time>
      </trkpt>
      <trkpt lat="43.62004" lon="7.12288">
        <ele>17.9</ele>
        <time>2011-12-11T14:55:42Z</time>
      </trkpt>
      <trkpt lat="43.62005" lon="7.12275">
        <ele>20.7</ele>
        <time>2011-12-11T14:55:49Z</time>
      </trkpt>
      <trkpt lat="43.62008" lon="7.12261">
        <ele>22.475</ele>
        <time>2011-12-11T14:55:55Z</time>
      </trkpt>
      <trkpt lat="43.6201" lon="7.12248">
        <ele>23.175</ele>
        <time>2011-12-11T14:56:00Z</time>
      </trkpt>
      <trkpt lat="43.62013" lon="7.12235">
        <ele>22.25</ele>
        <time>2011-12-11T14:56:06Z</time>
      </trkpt>
      <trkpt lat="43.62017" lon="7.12222">
        <ele>21.35</ele>
        <time>2011-12-11T14:56:12Z</time>
      </trkpt>
      <trkpt lat="43.6202" lon="7.1221">
        <ele>20.925</ele>
        <time>2011-12-11T14:56:17Z</time>
      </trkpt>
      <trkpt lat="43.62023" lon="7.12197">
        <ele>20.975</ele>
        <time>2011-12-11T14:56:21Z</time>
      </trkpt>
      <trkpt lat="43.62025" lon="7.12185">
        <ele>21.8</ele>
        <time>2011-12-11T14:56:25Z</time>
      </trkpt>
      <trkpt lat="43.62026" lon="7.12173">
        <ele>22.975</ele>
        <time>2011-12-11T14:56:30Z</time>
      </trkpt>
      <trkpt lat="43.62028" lon="7.12158">
        <ele>24.225</ele>
        <time>2011-12-11T14:56:34Z</time>
      </trkpt>
      <trkpt lat="43.6203" lon="7.12145">
        <ele>25.425</ele>
        <time>2011-12-11T14:56:38Z</time>
      </trkpt>
      <trkpt lat="43.62031" lon="7.12131">
        <ele>25.75</ele>
        <time>2011-12-11T14:56:41Z</time>
      </trkpt>
      <trkpt lat="43.62036" lon="7.12118">
        <ele>26.05</ele>
        <time>2011-12-11T14:56:45Z</time>
      </trkpt>
      <trkpt lat="43.62045" lon="7.12113">
        <ele>26.325</ele>
        <time>2011-12-11T14:56:49Z</time>
      </trkpt>
      <trkpt lat="43.62053" lon="7.12106">
        <ele>26.2</ele>
        <time>2011-12-11T14:56:53Z</time>
      </trkpt>
      <trkpt lat="43.62061" lon="7.12095">
        <ele>25.95</ele>
        <time>2011-12-11T14:56:56Z</time>
      </trkpt>
      <trkpt lat="43.62067" lon="7.12084">
        <ele>26.15</ele>
        <time>2011-12-11T14:56:59Z</time>
      </trkpt>
      <trkpt lat="43.62075" lon="7.12071">
        <ele>26.5</ele>
        <time>2011-12-11T14:57:02Z</time>
      </trkpt>
      <trkpt lat="43.62083" lon="7.12058">
        <ele>26.95</ele>
        <time>2011-12-11T14:57:05Z</time>
      </trkpt>
      <trkpt lat="43.62093" lon="7.12045">
        <ele>27.175</ele>
        <time>2011-12-11T14:57:08Z</time>
      </trkpt>
      <trkpt lat="43.62101" lon="7.12035">
        <ele>27.4</ele>
        <time>2011-12-11T14:57:11Z</time>
      </trkpt>
      <trkpt lat="43.6211" lon="7.12025">
        <ele>27.35</ele>
        <time>2011-12-11T14:57:15Z</time>
      </trkpt>
      <trkpt lat="43.62119" lon="7.12014">
        <ele>27.25</ele>
        <time>2011-12-11T14:57:18Z</time>
      </trkpt>
      <trkpt lat="43.62127" lon="7.11999">
        <ele>26.6</ele>
        <time>2011-12-11T14:57:21Z</time>
      </trkpt>
      <trkpt lat="43.62132" lon="7.11989">
        <ele>25.675</ele>
        <time>2011-12-11T14:57:23Z</time>
      </trkpt>
      <trkpt lat="43.62142" lon="7.11975">
        <ele>24.1</ele>
        <time>2011-12-11T14:57:25Z</time>
      </trkpt>
      <trkpt lat="43.62149" lon="7.11967">
        <ele>23.075</ele>
        <time>2011-12-11T14:57:26Z</time>
      </trkpt>
      <trkpt lat="43.62156" lon="7.11958">
        <ele>21.95</ele>
        <time>2011-12-11T14:57:27Z</time>
      </trkpt>
      <trkpt lat="43.62166" lon="7.11945">
        <ele>20.825</ele>
        <time>2011-12-11T14:57:28Z</time>
      </trkpt>
      <trkpt lat="43.62173" lon="7.11937">
        <ele>19.95</ele>
        <time>2011-12-11T14:57:29Z</time>
      </trkpt>
      <trkpt lat="43.6218" lon="7.11928">
        <ele>19.2</ele>
        <time>2011-12-11T14:57:30Z</time>
      </trkpt>
      <trkpt lat="43.62191" lon="7.11914">
        <ele>18.225</ele>
        <time>2011-12-11T14:57:32Z</time>
      </trkpt>
      <trkpt lat="43.62201" lon="7.119">
        <ele>17.85</ele>
        <time>2011-12-11T14:57:34Z</time>
      </trkpt>
      <trkpt lat="43.62208" lon="7.11891">
        <ele>17.95</ele>
        <time>2011-12-11T14:57:36Z</time>
      </trkpt>
      <trkpt lat="43.62215" lon="7.11881">
        <ele>18.875</ele>
        <time>2011-12-11T14:57:41Z</time>
      </trkpt>
      <trkpt lat="43.62222" lon="7.1187">
        <ele>20.525</ele>
        <time>2011-12-11T14:57:46Z</time>
      </trkpt>
      <trkpt lat="43.62231" lon="7.11858">
        <ele>23.075</ele>
        <time>2011-12-11T14:57:50Z</time>
      </trkpt>
      <trkpt lat="43.62237" lon="7.11848">
        <ele>25.325</ele>
        <time>2011-12-11T14:57:53Z</time>
      </trkpt>
      <trkpt lat="43.62243" lon="7.11837">
        <ele>26.825</ele>
        <time>2011-12-11T14:57:57Z</time>
      </trkpt>
      <trkpt lat="43.6225" lon="7.11826">
        <ele>27.725</ele>
        <time>2011-12-11T14:58:02Z</time>
      </trkpt>
      <trkpt lat="43.62256" lon="7.11817">
        <ele>28.2</ele>
        <time>2011-12-11T14:58:05Z</time>
      </trkpt>
      <trkpt lat="43.62262" lon="7.11808">
        <ele>28.375</ele>
        <time>2011-12-11T14:58:08Z</time>
      </trkpt>
      <trkpt lat="43.6227" lon="7.11798">
        <ele>28.825</ele>
        <time>2011-12-11T14:58:11Z</time>
      </trkpt>
      <trkpt lat="43.62279" lon="7.11791">
        <ele>29.475</ele>
        <time>2011-12-11T14:58:14Z</time>
      </trkpt>
      <trkpt lat="43.62289" lon="7.11795">
        <ele>30.425</ele>
        <time>2011-12-11T14:58:18Z</time>
      </trkpt>
      <trkpt lat="43.62299" lon="7.11802">
        <ele>31.075</ele>
        <time>2011-12-11T14:58:23Z</time>
      </trkpt>
      <trkpt lat="43.62308" lon="7.11806">
        <ele>31.75</ele>
        <time>2011-12-11T14:58:26Z</time>
      </trkpt>
      <trkpt lat="43.62318" lon="7.11807">
        <ele>32.625</ele>
        <time>2011-12-11T14:58:29Z</time>
      </trkpt>
      <trkpt lat="43.62328" lon="7.11808">
        <ele>33.5</ele>
        <time>2011-12-11T14:58:32Z</time>
      </trkpt>
      <trkpt lat="43.62338" lon="7.11809">
        <ele>33.975</ele>
        <time>2011-12-11T14:58:34Z</time>
      </trkpt>
      <trkpt lat="43.62349" lon="7.11809">
        <ele>34.5</ele>
        <time>2011-12-11T14:58:37Z</time>
      </trkpt>
      <trkpt lat="43.62359" lon="7.11809">
        <ele>35.225</ele>
        <time>2011-12-11T14:58:40Z</time>
      </trkpt>
      <trkpt lat="43.62369" lon="7.1181">
        <ele>36.225</ele>
        <time>2011-12-11T14:58:44Z</time>
      </trkpt>
      <trkpt lat="43.6238" lon="7.11812">
        <ele>37.05</ele>
        <time>2011-12-11T14:58:47Z</time>
      </trkpt>
      <trkpt lat="43.62389" lon="7.11816">
        <ele>37.825</ele>
        <time>2011-12-11T14:58:50Z</time>
      </trkpt>
      <trkpt lat="43.624" lon="7.11823">
        <ele>38.675</ele>
        <time>2011-12-11T14:58:53Z</time>
      </trkpt>
      <trkpt lat="43.6241" lon="7.11827">
        <ele>39.375</ele>
        <time>2011-12-11T14:58:55Z</time>
      </trkpt>
      <trkpt lat="43.62422" lon="7.11829">
        <ele>39.975</ele>
        <time>2011-12-11T14:58:58Z</time>
      </trkpt>
      <trkpt lat="43.62431" lon="7.11828">
        <ele>40.625</ele>
        <time>2011-12-11T14:59:01Z</time>
      </trkpt>
      <trkpt lat="43.62441" lon="7.11827">
        <ele>40.975</ele>
        <time>2011-12-11T14:59:05Z</time>
      </trkpt>
      <trkpt lat="43.62452" lon="7.11825">
        <ele>40.45</ele>
        <time>2011-12-11T14:59:08Z</time>
      </trkpt>
      <trkpt lat="43.62462" lon="7.11822">
        <ele>39.75</ele>
        <time>2011-12-11T14:59:11Z</time>
      </trkpt>
      <trkpt lat="43.62472" lon="7.1182">
        <ele>38.925</ele>
        <time>2011-12-11T14:59:14Z</time>
      </trkpt>
      <trkpt lat="43.62486" lon="7.11825">
        <ele>37.775</ele>
        <time>2011-12-11T14:59:17Z</time>
      </trkpt>
      <trkpt lat="43.62496" lon="7.11832">
        <ele>37.075</ele>
        <time>2011-12-11T14:59:19Z</time>
      </trkpt>
      <trkpt lat="43.62506" lon="7.1184">
        <ele>36.625</ele>
        <time>2011-12-11T14:59:23Z</time>
      </trkpt>
      <trkpt lat="43.62517" lon="7.11847">
        <ele>36.7</ele>
        <time>2011-12-11T14:59:26Z</time>
      </trkpt>
      <trkpt lat="43.62528" lon="7.11854">
        <ele>36.725</ele>
        <time>2011-12-11T14:59:29Z</time>
      </trkpt>
      <trkpt lat="43.6254" lon="7.11861">
        <ele>36.825</ele>
        <time>2011-12-11T14:59:32Z</time>
      </trkpt>
      <trkpt lat="43.62551" lon="7.11865">
        <ele>36.975</ele>
        <time>2011-12-11T14:59:34Z</time>
      </trkpt>
      <trkpt lat="43.62562" lon="7.11868">
        <ele>37.125</ele>
        <time>2011-12-11T14:59:36Z</time>
      </trkpt>
      <trkpt lat="43.62576" lon="7.11872">
        <ele>37.225</ele>
        <time>2011-12-11T14:59:39Z</time>
      </trkpt>
      <trkpt lat="43.62589" lon="7.11876">
        <ele>37.25</ele>
        <time>2011-12-11T14:59:42Z</time>
      </trkpt>
      <trkpt lat="43.62601" lon="7.1188">
        <ele>36.95</ele>
        <time>2011-12-11T14:59:46Z</time>
      </trkpt>
      <trkpt lat="43.62614" lon="7.11883">
        <ele>36.65</ele>
        <time>2011-12-11T14:59:49Z</time>
      </trkpt>
      <trkpt lat="43.62625" lon="7.11877">
        <ele>36.25</ele>
        <time>2011-12-11T14:59:52Z</time>
      </trkpt>
      <trkpt lat="43.62634" lon="7.11862">
        <ele>35.3</ele>
        <time>2011-12-11T14:59:55Z</time>
      </trkpt>
      <trkpt lat="43.62642" lon="7.11851">
        <ele>34.525</ele>
        <time>2011-12-11T14:59:57Z</time>
      </trkpt>
      <trkpt lat="43.62649" lon="7.11841">
        <ele>34.05</ele>
        <time>2011-12-11T14:59:59Z</time>
      </trkpt>
      <trkpt lat="43.62657" lon="7.11833">
        <ele>33.925</ele>
        <time>2011-12-11T15:00:02Z</time>
      </trkpt>
      <trkpt lat="43.62665" lon="7.11822">
        <ele>34.025</ele>
        <time>2011-12-11T15:00:05Z</time>
      </trkpt>
      <trkpt lat="43.62672" lon="7.11813">
        <ele>34.125</ele>
        <time>2011-12-11T15:00:07Z</time>
      </trkpt>
      <trkpt lat="43.62681" lon="7.11803">
        <ele>34.325</ele>
        <time>2011-12-11T15:00:09Z</time>
      </trkpt>
      <trkpt lat="43.62688" lon="7.11795">
        <ele>34.625</ele>
        <time>2011-12-11T15:00:11Z</time>
      </trkpt>
      <trkpt lat="43.62699" lon="7.11785">
        <ele>35.05</ele>
        <time>2011-12-11T15:00:14Z</time>
      </trkpt>
      <trkpt lat="43.62709" lon="7.11776">
        <ele>35.175</ele>
        <time>2011-12-11T15:00:18Z</time>
      </trkpt>
      <trkpt lat="43.62718" lon="7.11767">
        <ele>35.1</ele>
        <time>2011-12-11T15:00:21Z</time>
      </trkpt>
      <trkpt lat="43.62726" lon="7.11759">
        <ele>35.15</ele>
        <time>2011-12-11T15:00:24Z</time>
      </trkpt>
      <trkpt lat="43.62735" lon="7.11748">
        <ele>35.2</ele>
        <time>2011-12-11T15:00:27Z</time>
      </trkpt>
      <trkpt lat="43.62744" lon="7.11737">
        <ele>35.2</ele>
        <time>2011-12-11T15:00:30Z</time>
      </trkpt>
      <trkpt lat="43.62753" lon="7.11728">
        <ele>35.05</ele>
        <time>2011-12-11T15:00:34Z</time>
      </trkpt>
      <trkpt lat="43.6276" lon="7.11737">
        <ele>35.175</ele>
        <time>2011-12-11T15:00:40Z</time>
      </trkpt>
      <trkpt lat="43.62756" lon="7.1175">
        <ele>35.125</ele>
        <time>2011-12-11T15:00:45Z</time>
      </trkpt>
      <trkpt lat="43.62746" lon="7.11758">
        <ele>35.3</ele>
        <time>2011-12-11T15:00:49Z</time>
      </trkpt>
      <trkpt lat="43.62738" lon="7.11767">
        <ele>35.425</ele>
        <time>2011-12-11T15:00:52Z</time>
      </trkpt>
      <trkpt lat="43.62736" lon="7.11774">
        <ele>36.125</ele>
        <time>2011-12-11T15:01:00Z</time>
      </trkpt>
    </trkseg>
  </trk>
</gpx>